<?xml version='1.0' encoding='UTF-8'?><gpx version="1.1" creator="JPX - https://github.com/jenetics/jpx" xmlns="http://www.topografix.com/GPX/1/1"><trk><trkseg><trkpt lat="43.31124702147305" lon="10.523282785615594"><ele>15.0</ele><time>2026-04-05T05:03:38.001Z</time></trkpt><trkpt lat="43.311171136351675" lon="10.523276534452636"><ele>15.0</ele><time>2026-04-05T05:03:43.001Z</time></trkpt><trkpt lat="43.31113659554918" lon="10.52319844436629"><ele>15.0</ele><time>2026-04-05T05:03:47.001Z</time></trkpt><trkpt lat="43.31112885900453" lon="10.523111752706978"><ele>15.0</ele><time>2026-04-05T05:03:51.001Z</time></trkpt><trkpt lat="43.31111426015601" lon="10.523020890744489"><ele>15.0</ele><time>2026-04-05T05:03:56.001Z</time></trkpt><trkpt lat="43.31107858167677" lon="10.522945731840862"><ele>15.0</ele><time>2026-04-05T05:04:00.001Z</time></trkpt><trkpt lat="43.31105018208071" lon="10.522845943762293"><ele>15.0</ele><time>2026-04-05T05:04:05.001Z</time></trkpt><trkpt lat="43.31103203457048" lon="10.522750280554929"><ele>15.142857142857142</ele><time>2026-04-05T05:04:09.002Z</time></trkpt><trkpt lat="43.31101578324509" lon="10.522644656576029"><ele>15.285714285714285</ele><time>2026-04-05T05:04:14.002Z</time></trkpt><trkpt lat="43.31099854234545" lon="10.522542292105493"><ele>15.428571428571427</ele><time>2026-04-05T05:04:19.002Z</time></trkpt><trkpt lat="43.310953863543816" lon="10.522453555581485"><ele>15.571428571428571</ele><time>2026-04-05T05:04:24.002Z</time></trkpt><trkpt lat="43.31091537897235" lon="10.5223754924128"><ele>15.714285714285712</ele><time>2026-04-05T05:04:28.002Z</time></trkpt><trkpt lat="43.310881982081106" lon="10.52228242982408"><ele>15.857142857142856</ele><time>2026-04-05T05:04:33.002Z</time></trkpt><trkpt lat="43.31083961416287" lon="10.52220305443028"><ele>16.0</ele><time>2026-04-05T05:04:38.002Z</time></trkpt><trkpt lat="43.31076876429356" lon="10.52217461256354"><ele>16.0</ele><time>2026-04-05T05:04:43.002Z</time></trkpt><trkpt lat="43.31069220022576" lon="10.52216617367295"><ele>15.999999999999998</ele><time>2026-04-05T05:04:47.003Z</time></trkpt><trkpt lat="43.31062442495243" lon="10.522159482309574"><ele>16.0</ele><time>2026-04-05T05:04:51.003Z</time></trkpt><trkpt lat="43.310547518550784" lon="10.522171775776327"><ele>16.0</ele><time>2026-04-05T05:04:57.003Z</time></trkpt><trkpt lat="43.310467476425295" lon="10.522191459598613"><ele>15.999999999999998</ele><time>2026-04-05T05:05:02.003Z</time></trkpt><trkpt lat="43.31039200300942" lon="10.522198605753424"><ele>16.0</ele><time>2026-04-05T05:05:07.003Z</time></trkpt><trkpt lat="43.31033103546191" lon="10.522230738633837"><ele>16.0</ele><time>2026-04-05T05:05:13.002Z</time></trkpt><trkpt lat="43.31032348273228" lon="10.522141319713011"><ele>15.571428571428571</ele><time>2026-04-05T05:05:19.002Z</time></trkpt><trkpt lat="43.31027481753427" lon="10.522055862509655"><ele>15.142857142857142</ele><time>2026-04-05T05:05:24.002Z</time></trkpt><trkpt lat="43.310238958509686" lon="10.521973952140119"><ele>14.714285714285714</ele><time>2026-04-05T05:05:28.002Z</time></trkpt><trkpt lat="43.310230650517106" lon="10.52186778132847"><ele>14.285714285714285</ele><time>2026-04-05T05:05:33.002Z</time></trkpt><trkpt lat="43.31019070671829" lon="10.52178289588805"><ele>13.857142857142858</ele><time>2026-04-05T05:05:37.001Z</time></trkpt><trkpt lat="43.310151368860694" lon="10.521702588602913"><ele>13.428571428571427</ele><time>2026-04-05T05:05:42.001Z</time></trkpt><trkpt lat="43.3101280757916" lon="10.52161351464132"><ele>13.0</ele><time>2026-04-05T05:05:50.001Z</time></trkpt><trkpt lat="43.31010829651537" lon="10.521520211719517"><ele>13.0</ele><time>2026-04-05T05:05:58.002Z</time></trkpt><trkpt lat="43.31007644116323" lon="10.521442601886719"><ele>13.0</ele><time>2026-04-05T05:06:04.002Z</time></trkpt><trkpt lat="43.310039328910655" lon="10.521369792341606"><ele>13.0</ele><time>2026-04-05T05:06:09.002Z</time></trkpt><trkpt lat="43.31002713888253" lon="10.521281831166576"><ele>13.0</ele><time>2026-04-05T05:06:13.002Z</time></trkpt><trkpt lat="43.31000357178387" lon="10.521193084423121"><ele>13.0</ele><time>2026-04-05T05:06:17.002Z</time></trkpt><trkpt lat="43.30995418664555" lon="10.521112877920185"><ele>13.0</ele><time>2026-04-05T05:06:21.002Z</time></trkpt><trkpt lat="43.30989998238212" lon="10.521036127686914"><ele>13.0</ele><time>2026-04-05T05:06:25.002Z</time></trkpt><trkpt lat="43.30985494530454" lon="10.520967056791953"><ele>13.0</ele><time>2026-04-05T05:06:29.002Z</time></trkpt><trkpt lat="43.30985164067947" lon="10.520873499101258"><ele>13.0</ele><time>2026-04-05T05:06:33.002Z</time></trkpt><trkpt lat="43.30983893479299" lon="10.520777857023058"><ele>13.0</ele><time>2026-04-05T05:06:37.002Z</time></trkpt><trkpt lat="43.30986171629311" lon="10.520693107241243"><ele>13.0</ele><time>2026-04-05T05:06:41.002Z</time></trkpt><trkpt lat="43.30986245795497" lon="10.520593012839187"><ele>13.0</ele><time>2026-04-05T05:06:45.002Z</time></trkpt><trkpt lat="43.309824821274866" lon="10.520501201080615"><ele>13.0</ele><time>2026-04-05T05:06:49.002Z</time></trkpt><trkpt lat="43.309797787533334" lon="10.520413750202906"><ele>13.0</ele><time>2026-04-05T05:06:53.002Z</time></trkpt><trkpt lat="43.30977981228842" lon="10.520329278988326"><ele>13.142857142857142</ele><time>2026-04-05T05:06:57.002Z</time></trkpt><trkpt lat="43.30975530692646" lon="10.520244189081167"><ele>13.285714285714286</ele><time>2026-04-05T05:07:01.002Z</time></trkpt><trkpt lat="43.30972542258504" lon="10.520164300788416"><ele>13.428571428571429</ele><time>2026-04-05T05:07:05.002Z</time></trkpt><trkpt lat="43.30970742652678" lon="10.520071054106237"><ele>13.571428571428571</ele><time>2026-04-05T05:07:10.003Z</time></trkpt><trkpt lat="43.30968982165561" lon="10.519973328367495"><ele>13.714285714285715</ele><time>2026-04-05T05:07:14.002Z</time></trkpt><trkpt lat="43.30965758965846" lon="10.519882597790644"><ele>13.857142857142858</ele><time>2026-04-05T05:07:18.002Z</time></trkpt><trkpt lat="43.30964264104599" lon="10.519797637017922"><ele>14.0</ele><time>2026-04-05T05:07:23.002Z</time></trkpt><trkpt lat="43.309619585461796" lon="10.519706345703817"><ele>13.714285714285714</ele><time>2026-04-05T05:07:29.001Z</time></trkpt><trkpt lat="43.30958112536046" lon="10.519608569035736"><ele>13.428571428571429</ele><time>2026-04-05T05:07:34.001Z</time></trkpt><trkpt lat="43.30955152195702" lon="10.519506675756128"><ele>13.142857142857142</ele><time>2026-04-05T05:07:38.001Z</time></trkpt><trkpt lat="43.30952648684372" lon="10.519417371044902"><ele>12.857142857142858</ele><time>2026-04-05T05:07:42.001Z</time></trkpt><trkpt lat="43.309503027985585" lon="10.519336598025781"><ele>12.571428571428571</ele><time>2026-04-05T05:07:47.001Z</time></trkpt><trkpt lat="43.30948834994371" lon="10.519247717720695"><ele>12.285714285714285</ele><time>2026-04-05T05:07:51.001Z</time></trkpt><trkpt lat="43.30947157253845" lon="10.519163267489972"><ele>12.0</ele><time>2026-04-05T05:07:55.001Z</time></trkpt><trkpt lat="43.30943376954128" lon="10.519070859171022"><ele>12.0</ele><time>2026-04-05T05:07:59.001Z</time></trkpt><trkpt lat="43.30937086437023" lon="10.518993108906798"><ele>12.0</ele><time>2026-04-05T05:08:03.001Z</time></trkpt><trkpt lat="43.30932681117206" lon="10.518922708934534"><ele>12.0</ele><time>2026-04-05T05:08:07.001Z</time></trkpt><trkpt lat="43.30928641703387" lon="10.518835349684561"><ele>12.0</ele><time>2026-04-05T05:08:12.001Z</time></trkpt><trkpt lat="43.30925428946998" lon="10.51873137287603"><ele>12.0</ele><time>2026-04-05T05:08:16.001Z</time></trkpt><trkpt lat="43.30924782560021" lon="10.518640829107675"><ele>12.0</ele><time>2026-04-05T05:08:20.001Z</time></trkpt><trkpt lat="43.3092742136067" lon="10.518544009845026"><ele>11.999999999999998</ele><time>2026-04-05T05:08:25.001Z</time></trkpt><trkpt lat="43.30924581680909" lon="10.518465107428199"><ele>12.0</ele><time>2026-04-05T05:08:30.001Z</time></trkpt><trkpt lat="43.309201359211755" lon="10.518380841721306"><ele>12.0</ele><time>2026-04-05T05:08:34.001Z</time></trkpt><trkpt lat="43.30915960281783" lon="10.518305806131682"><ele>12.0</ele><time>2026-04-05T05:08:38.001Z</time></trkpt><trkpt lat="43.309119610904034" lon="10.518215401613325"><ele>12.0</ele><time>2026-04-05T05:08:42.001Z</time></trkpt><trkpt lat="43.309096349817395" lon="10.518128233028193"><ele>11.999999999999998</ele><time>2026-04-05T05:08:46.001Z</time></trkpt><trkpt lat="43.30914880328659" lon="10.518043824913486"><ele>12.0</ele><time>2026-04-05T05:08:52.001Z</time></trkpt><trkpt lat="43.309189061347034" lon="10.517972494388031"><ele>12.428571428571427</ele><time>2026-04-05T05:08:56.001Z</time></trkpt><trkpt lat="43.30920963035165" lon="10.517876326091827"><ele>12.857142857142858</ele><time>2026-04-05T05:09:00.001Z</time></trkpt><trkpt lat="43.30922033328954" lon="10.517775612047144"><ele>13.285714285714285</ele><time>2026-04-05T05:09:06.001Z</time></trkpt><trkpt lat="43.3092185554697" lon="10.517674211140355"><ele>13.714285714285714</ele><time>2026-04-05T05:09:13.001Z</time></trkpt><trkpt lat="43.30915098839935" lon="10.517637459024199"><ele>14.142857142857142</ele><time>2026-04-05T05:09:18.001Z</time></trkpt><trkpt lat="43.30911817586162" lon="10.517551231624726"><ele>14.571428571428571</ele><time>2026-04-05T05:09:24.001Z</time></trkpt><trkpt lat="43.30911280621074" lon="10.517464739589554"><ele>15.0</ele><time>2026-04-05T05:09:29.001Z</time></trkpt><trkpt lat="43.30908145123689" lon="10.517367110283757"><ele>15.0</ele><time>2026-04-05T05:09:33.001Z</time></trkpt><trkpt lat="43.30907412751024" lon="10.517272489677504"><ele>15.0</ele><time>2026-04-05T05:09:36.001Z</time></trkpt><trkpt lat="43.30906683095311" lon="10.517172454284824"><ele>15.0</ele><time>2026-04-05T05:09:38.001Z</time></trkpt><trkpt lat="43.30906246907399" lon="10.51706240531271"><ele>15.0</ele><time>2026-04-05T05:09:40.001Z</time></trkpt><trkpt lat="43.30902766637237" lon="10.516958604355683"><ele>15.0</ele><time>2026-04-05T05:09:44.001Z</time></trkpt><trkpt lat="43.30898031654002" lon="10.51688383329447"><ele>15.0</ele><time>2026-04-05T05:09:49.001Z</time></trkpt><trkpt lat="43.30894571979268" lon="10.516811415650308"><ele>15.0</ele><time>2026-04-05T05:09:54.001Z</time></trkpt><trkpt lat="43.30890510715545" lon="10.51672477271234"><ele>14.5</ele><time>2026-04-05T05:09:59.001Z</time></trkpt><trkpt lat="43.308866208579836" lon="10.51665558956599"><ele>14.0</ele><time>2026-04-05T05:10:03.001Z</time></trkpt><trkpt lat="43.3088227837227" lon="10.516578714573106"><ele>13.5</ele><time>2026-04-05T05:10:09.001Z</time></trkpt><trkpt lat="43.30885419064696" lon="10.516433822508438"><ele>13.0</ele><time>2026-04-05T05:10:30.001Z</time></trkpt><trkpt lat="43.30890957423616" lon="10.516378864538819"><ele>12.5</ele><time>2026-04-05T05:10:42.001Z</time></trkpt><trkpt lat="43.308977982949955" lon="10.516343365640184"><ele>12.0</ele><time>2026-04-05T05:11:53Z</time></trkpt><trkpt lat="43.30895594779368" lon="10.51625811335916"><ele>11.571428571428571</ele><time>2026-04-05T05:12:12Z</time></trkpt><trkpt lat="43.308907959269" lon="10.516193454638948"><ele>11.142857142857142</ele><time>2026-04-05T05:12:23Z</time></trkpt><trkpt lat="43.30887843490277" lon="10.516104117835425"><ele>10.714285714285715</ele><time>2026-04-05T05:12:28Z</time></trkpt><trkpt lat="43.30888184177363" lon="10.516012786008279"><ele>10.285714285714285</ele><time>2026-04-05T05:12:33Z</time></trkpt><trkpt lat="43.308943830653206" lon="10.515984745559539"><ele>9.857142857142858</ele><time>2026-04-05T05:12:39Z</time></trkpt><trkpt lat="43.308986414526004" lon="10.515915999453346"><ele>9.428571428571429</ele><time>2026-04-05T05:12:47Z</time></trkpt><trkpt lat="43.309060948767375" lon="10.51588127364665"><ele>9.0</ele><time>2026-04-05T05:12:52Z</time></trkpt><trkpt lat="43.30913693139094" lon="10.515848751993005"><ele>9.000000000000002</ele><time>2026-04-05T05:12:57Z</time></trkpt><trkpt lat="43.30920432717398" lon="10.515831258478702"><ele>9.0</ele><time>2026-04-05T05:13:02Z</time></trkpt><trkpt lat="43.30924771817364" lon="10.515763920894921"><ele>9.0</ele><time>2026-04-05T05:13:06Z</time></trkpt><trkpt lat="43.309293092839596" lon="10.515703791417879"><ele>9.0</ele><time>2026-04-05T05:13:10Z</time></trkpt><trkpt lat="43.309357626058954" lon="10.515671296072512"><ele>9.0</ele><time>2026-04-05T05:13:13Z</time></trkpt><trkpt lat="43.309422913001946" lon="10.515628214161454"><ele>9.000000000000002</ele><time>2026-04-05T05:13:17Z</time></trkpt><trkpt lat="43.30946815767166" lon="10.515561031497885"><ele>9.0</ele><time>2026-04-05T05:13:21Z</time></trkpt><trkpt lat="43.30947176572117" lon="10.515457593749863"><ele>9.0</ele><time>2026-04-05T05:13:26Z</time></trkpt><trkpt lat="43.3094428846125" lon="10.515360700216192"><ele>9.0</ele><time>2026-04-05T05:13:32Z</time></trkpt><trkpt lat="43.30940952062939" lon="10.515262564610488"><ele>9.0</ele><time>2026-04-05T05:13:37Z</time></trkpt><trkpt lat="43.30938482924317" lon="10.515169932879903"><ele>9.0</ele><time>2026-04-05T05:13:43Z</time></trkpt><trkpt lat="43.30938088834066" lon="10.515073426848673"><ele>9.0</ele><time>2026-04-05T05:13:50Z</time></trkpt><trkpt lat="43.309207880373044" lon="10.514166407314395"><ele>8.857142857142858</ele><time>2026-04-05T05:14:17Z</time></trkpt><trkpt lat="43.30914038984556" lon="10.514194234140383"><ele>8.714285714285715</ele><time>2026-04-05T05:14:29Z</time></trkpt><trkpt lat="43.30908780534159" lon="10.51414331189509"><ele>8.571428571428571</ele><time>2026-04-05T05:14:36Z</time></trkpt><trkpt lat="43.30901811769523" lon="10.514104773494168"><ele>8.428571428571429</ele><time>2026-04-05T05:14:42Z</time></trkpt><trkpt lat="43.3090084513026" lon="10.51401292408999"><ele>8.285714285714285</ele><time>2026-04-05T05:14:48Z</time></trkpt><trkpt lat="43.308991995118866" lon="10.51391459319127"><ele>8.142857142857142</ele><time>2026-04-05T05:14:55Z</time></trkpt><trkpt lat="43.30895799723176" lon="10.513831953801766"><ele>8.0</ele><time>2026-04-05T05:15:02Z</time></trkpt><trkpt lat="43.30893155197116" lon="10.513745254740442"><ele>8.0</ele><time>2026-04-05T05:15:06Z</time></trkpt><trkpt lat="43.30888423894077" lon="10.513654284699621"><ele>7.999999999999999</ele><time>2026-04-05T05:15:10Z</time></trkpt><trkpt lat="43.3088501271884" lon="10.513576645294894"><ele>8.0</ele><time>2026-04-05T05:15:14Z</time></trkpt><trkpt lat="43.308814350113906" lon="10.513479916904073"><ele>8.0</ele><time>2026-04-05T05:15:19Z</time></trkpt><trkpt lat="43.30877911209708" lon="10.513396762716491"><ele>7.999999999999999</ele><time>2026-04-05T05:15:23Z</time></trkpt><trkpt lat="43.30874475178495" lon="10.513312380348097"><ele>8.0</ele><time>2026-04-05T05:15:27Z</time></trkpt><trkpt lat="43.308686642897925" lon="10.513241278620622"><ele>8.0</ele><time>2026-04-05T05:15:31Z</time></trkpt><trkpt lat="43.30864133123803" lon="10.513162539688983"><ele>8.0</ele><time>2026-04-05T05:15:35Z</time></trkpt><trkpt lat="43.30860628632196" lon="10.51308926999916"><ele>7.999999999999999</ele><time>2026-04-05T05:15:39Z</time></trkpt><trkpt lat="43.3085598683469" lon="10.513002152792835"><ele>8.0</ele><time>2026-04-05T05:15:43Z</time></trkpt><trkpt lat="43.30853049251472" lon="10.512914626070845"><ele>8.0</ele><time>2026-04-05T05:15:47Z</time></trkpt><trkpt lat="43.308495806206075" lon="10.512833763525325"><ele>7.999999999999999</ele><time>2026-04-05T05:15:52Z</time></trkpt><trkpt lat="43.3084511397347" lon="10.512741989908305"><ele>8.0</ele><time>2026-04-05T05:15:57Z</time></trkpt><trkpt lat="43.30841999445426" lon="10.512659732093027"><ele>8.0</ele><time>2026-04-05T05:16:01Z</time></trkpt><trkpt lat="43.308389741623216" lon="10.51257211661088"><ele>7.857142857142857</ele><time>2026-04-05T05:16:05Z</time></trkpt><trkpt lat="43.30834940883881" lon="10.51248543867598"><ele>7.7142857142857135</ele><time>2026-04-05T05:16:10Z</time></trkpt><trkpt lat="43.30831774273546" lon="10.512401013247914"><ele>7.571428571428571</ele><time>2026-04-05T05:16:16Z</time></trkpt><trkpt lat="43.30826515058789" lon="10.512313294806102"><ele>7.428571428571429</ele><time>2026-04-05T05:16:22Z</time></trkpt><trkpt lat="43.30821729262737" lon="10.51223465713104"><ele>7.285714285714286</ele><time>2026-04-05T05:16:27Z</time></trkpt><trkpt lat="43.308188139283175" lon="10.512152965820253"><ele>7.142857142857142</ele><time>2026-04-05T05:16:31Z</time></trkpt><trkpt lat="43.30816523255621" lon="10.512069122627157"><ele>7.0</ele><time>2026-04-05T05:16:34Z</time></trkpt><trkpt lat="43.308121637254885" lon="10.511994474132537"><ele>7.0</ele><time>2026-04-05T05:16:38Z</time></trkpt><trkpt lat="43.30807217580992" lon="10.511908938290771"><ele>7.0</ele><time>2026-04-05T05:16:43Z</time></trkpt><trkpt lat="43.308027210007204" lon="10.511828390479637"><ele>7.0</ele><time>2026-04-05T05:16:47Z</time></trkpt><trkpt lat="43.30799201956471" lon="10.51173767766751"><ele>7.0</ele><time>2026-04-05T05:16:53Z</time></trkpt><trkpt lat="43.30795451508343" lon="10.511665874718165"><ele>7.0</ele><time>2026-04-05T05:16:57Z</time></trkpt><trkpt lat="43.30791525998179" lon="10.511585645587704"><ele>7.0</ele><time>2026-04-05T05:17:01Z</time></trkpt><trkpt lat="43.307867328164235" lon="10.511501049583785"><ele>7.0</ele><time>2026-04-05T05:17:06Z</time></trkpt><trkpt lat="43.30782710342122" lon="10.511416024342905"><ele>7.0</ele><time>2026-04-05T05:17:11Z</time></trkpt><trkpt lat="43.307779004516334" lon="10.511319226042795"><ele>7.0</ele><time>2026-04-05T05:17:16Z</time></trkpt><trkpt lat="43.30773047098729" lon="10.51123987903169"><ele>7.0</ele><time>2026-04-05T05:17:20Z</time></trkpt><trkpt lat="43.30769783091167" lon="10.51115647711751"><ele>7.0</ele><time>2026-04-05T05:17:24Z</time></trkpt><trkpt lat="43.307665376471746" lon="10.511077819185704"><ele>7.0</ele><time>2026-04-05T05:17:28Z</time></trkpt><trkpt lat="43.307624960253364" lon="10.510995951812136"><ele>7.0</ele><time>2026-04-05T05:17:32Z</time></trkpt><trkpt lat="43.307590860005796" lon="10.510906647457086"><ele>7.0</ele><time>2026-04-05T05:17:36Z</time></trkpt><trkpt lat="43.30755281810594" lon="10.51082758036948"><ele>7.142857142857142</ele><time>2026-04-05T05:17:41Z</time></trkpt><trkpt lat="43.307510676066734" lon="10.510757901138906"><ele>7.285714285714286</ele><time>2026-04-05T05:17:45Z</time></trkpt><trkpt lat="43.30748351313371" lon="10.510656221256358"><ele>7.428571428571429</ele><time>2026-04-05T05:17:50Z</time></trkpt><trkpt lat="43.307452988025055" lon="10.510579667547624"><ele>7.571428571428571</ele><time>2026-04-05T05:17:55Z</time></trkpt><trkpt lat="43.30740900753209" lon="10.510502756565954"><ele>7.7142857142857135</ele><time>2026-04-05T05:17:59Z</time></trkpt><trkpt lat="43.30736018996281" lon="10.510433755410196"><ele>7.857142857142857</ele><time>2026-04-05T05:18:04Z</time></trkpt><trkpt lat="43.307316666457865" lon="10.510365988979306"><ele>8.0</ele><time>2026-04-05T05:18:08Z</time></trkpt><trkpt lat="43.307281899988546" lon="10.510282585469486"><ele>8.0</ele><time>2026-04-05T05:18:13Z</time></trkpt><trkpt lat="43.30724857109066" lon="10.5102061688071"><ele>7.999999999999999</ele><time>2026-04-05T05:18:18Z</time></trkpt><trkpt lat="43.307201103118125" lon="10.510130805808076"><ele>8.0</ele><time>2026-04-05T05:18:23Z</time></trkpt><trkpt lat="43.307169908687335" lon="10.510044060815495"><ele>8.0</ele><time>2026-04-05T05:18:29Z</time></trkpt><trkpt lat="43.307116222993926" lon="10.509934739166692"><ele>7.999999999999999</ele><time>2026-04-05T05:18:33Z</time></trkpt><trkpt lat="43.30707678507432" lon="10.509858381688845"><ele>8.0</ele><time>2026-04-05T05:18:36Z</time></trkpt><trkpt lat="43.30703395795021" lon="10.50977185777225"><ele>8.0</ele><time>2026-04-05T05:18:40Z</time></trkpt><trkpt lat="43.30698616699608" lon="10.509678177390544"><ele>7.857142857142857</ele><time>2026-04-05T05:18:45Z</time></trkpt><trkpt lat="43.30694763444792" lon="10.509589854365027"><ele>7.7142857142857135</ele><time>2026-04-05T05:18:50Z</time></trkpt><trkpt lat="43.30690992351133" lon="10.509507356958895"><ele>7.571428571428571</ele><time>2026-04-05T05:18:55Z</time></trkpt><trkpt lat="43.306874616927" lon="10.509435046028386"><ele>7.428571428571429</ele><time>2026-04-05T05:18:59Z</time></trkpt><trkpt lat="43.30683815427138" lon="10.509349249007572"><ele>7.285714285714286</ele><time>2026-04-05T05:19:03Z</time></trkpt><trkpt lat="43.306805701887555" lon="10.509271453956385"><ele>7.142857142857142</ele><time>2026-04-05T05:19:07Z</time></trkpt><trkpt lat="43.306765694970494" lon="10.509198134941375"><ele>7.0</ele><time>2026-04-05T05:19:12Z</time></trkpt><trkpt lat="43.30673080445305" lon="10.509111262314523"><ele>7.0</ele><time>2026-04-05T05:19:17Z</time></trkpt><trkpt lat="43.30669475563889" lon="10.50902745745433"><ele>7.0</ele><time>2026-04-05T05:19:20Z</time></trkpt><trkpt lat="43.306649009692606" lon="10.508941283743827"><ele>7.0</ele><time>2026-04-05T05:19:24Z</time></trkpt><trkpt lat="43.30661498981507" lon="10.508849597615251"><ele>7.0</ele><time>2026-04-05T05:19:28Z</time></trkpt><trkpt lat="43.30656857812765" lon="10.508760644514398"><ele>7.0</ele><time>2026-04-05T05:19:33Z</time></trkpt><trkpt lat="43.306527496292574" lon="10.508685969600702"><ele>7.0</ele><time>2026-04-05T05:19:39Z</time></trkpt><trkpt lat="43.30648913848241" lon="10.508607310659848"><ele>7.0</ele><time>2026-04-05T05:19:44Z</time></trkpt><trkpt lat="43.30644959058888" lon="10.508528414690568"><ele>7.0</ele><time>2026-04-05T05:19:49Z</time></trkpt><trkpt lat="43.30640660790938" lon="10.50845720219791"><ele>7.0</ele><time>2026-04-05T05:19:54Z</time></trkpt><trkpt lat="43.3063520735003" lon="10.508381756978988"><ele>7.0</ele><time>2026-04-05T05:19:58Z</time></trkpt><trkpt lat="43.30631332477472" lon="10.508309840674123"><ele>7.0</ele><time>2026-04-05T05:20:02Z</time></trkpt><trkpt lat="43.30628113423982" lon="10.508224081991196"><ele>7.0</ele><time>2026-04-05T05:20:08Z</time></trkpt><trkpt lat="43.30624772867998" lon="10.508147316247188"><ele>7.0</ele><time>2026-04-05T05:20:11Z</time></trkpt><trkpt lat="43.30621351785013" lon="10.50806095048895"><ele>7.0</ele><time>2026-04-05T05:20:15Z</time></trkpt><trkpt lat="43.30618684682966" lon="10.507978960354958"><ele>7.0</ele><time>2026-04-05T05:20:20Z</time></trkpt><trkpt lat="43.30614580008007" lon="10.507890508289542"><ele>7.0</ele><time>2026-04-05T05:20:25Z</time></trkpt><trkpt lat="43.30610887001795" lon="10.507815955565487"><ele>7.0</ele><time>2026-04-05T05:20:29Z</time></trkpt><trkpt lat="43.306063140705135" lon="10.507726364369354"><ele>7.0</ele><time>2026-04-05T05:20:34Z</time></trkpt><trkpt lat="43.30602767392779" lon="10.507638981868435"><ele>7.0</ele><time>2026-04-05T05:20:38Z</time></trkpt><trkpt lat="43.30598840529979" lon="10.507547881099619"><ele>7.0</ele><time>2026-04-05T05:20:43Z</time></trkpt><trkpt lat="43.30594484314828" lon="10.507468735869956"><ele>7.0</ele><time>2026-04-05T05:20:47Z</time></trkpt><trkpt lat="43.30589390610883" lon="10.507381182434496"><ele>7.0</ele><time>2026-04-05T05:20:51Z</time></trkpt><trkpt lat="43.305869281410224" lon="10.507298895154259"><ele>7.0</ele><time>2026-04-05T05:20:55Z</time></trkpt><trkpt lat="43.3058398501009" lon="10.507222193186106"><ele>7.0</ele><time>2026-04-05T05:21:03Z</time></trkpt><trkpt lat="43.30579886061177" lon="10.507126406459363"><ele>7.0</ele><time>2026-04-05T05:21:08Z</time></trkpt><trkpt lat="43.30574486433683" lon="10.507053482189349"><ele>7.0</ele><time>2026-04-05T05:21:12Z</time></trkpt><trkpt lat="43.30570570758104" lon="10.506985438169098"><ele>7.0</ele><time>2026-04-05T05:21:16Z</time></trkpt><trkpt lat="43.30566072847741" lon="10.506899325629036"><ele>7.0</ele><time>2026-04-05T05:21:20Z</time></trkpt><trkpt lat="43.30562413923471" lon="10.506824644072843"><ele>6.714285714285714</ele><time>2026-04-05T05:21:24Z</time></trkpt><trkpt lat="43.30557573199257" lon="10.506763251084601"><ele>6.428571428571429</ele><time>2026-04-05T05:21:28Z</time></trkpt><trkpt lat="43.305532507043374" lon="10.50668699974639"><ele>6.142857142857142</ele><time>2026-04-05T05:21:32Z</time></trkpt><trkpt lat="43.30551523285374" lon="10.506600217066367"><ele>5.857142857142858</ele><time>2026-04-05T05:21:37Z</time></trkpt><trkpt lat="43.30548296227916" lon="10.506506783651428"><ele>5.571428571428571</ele><time>2026-04-05T05:21:42Z</time></trkpt><trkpt lat="43.30544766899512" lon="10.50643499719693"><ele>5.285714285714286</ele><time>2026-04-05T05:21:46Z</time></trkpt><trkpt lat="43.30540633816365" lon="10.506360614154739"><ele>5.0</ele><time>2026-04-05T05:21:50Z</time></trkpt><trkpt lat="43.30537954679696" lon="10.50627558114489"><ele>4.857142857142857</ele><time>2026-04-05T05:21:55Z</time></trkpt><trkpt lat="43.30533432068036" lon="10.506189628778536"><ele>4.714285714285714</ele><time>2026-04-05T05:22:00Z</time></trkpt><trkpt lat="43.30528621833946" lon="10.50611587272642"><ele>4.571428571428571</ele><time>2026-04-05T05:22:05Z</time></trkpt><trkpt lat="43.3052611228605" lon="10.506035293586072"><ele>4.428571428571429</ele><time>2026-04-05T05:22:09Z</time></trkpt><trkpt lat="43.30522307513349" lon="10.50594384863922"><ele>4.285714285714286</ele><time>2026-04-05T05:22:15Z</time></trkpt><trkpt lat="43.30517626690607" lon="10.505866229973893"><ele>4.142857142857142</ele><time>2026-04-05T05:22:20Z</time></trkpt><trkpt lat="43.305137311775006" lon="10.50576939858498"><ele>4.0</ele><time>2026-04-05T05:22:24Z</time></trkpt><trkpt lat="43.30509554887595" lon="10.505704295498731"><ele>4.0</ele><time>2026-04-05T05:22:29Z</time></trkpt><trkpt lat="43.30504213940459" lon="10.505649394118104"><ele>3.9999999999999996</ele><time>2026-04-05T05:22:33Z</time></trkpt><trkpt lat="43.30501452080915" lon="10.50555002642742"><ele>4.0</ele><time>2026-04-05T05:22:37Z</time></trkpt><trkpt lat="43.30497652235451" lon="10.505457513321188"><ele>4.0</ele><time>2026-04-05T05:22:42Z</time></trkpt><trkpt lat="43.30492974686841" lon="10.505368396856264"><ele>3.9999999999999996</ele><time>2026-04-05T05:22:46Z</time></trkpt><trkpt lat="43.30488490195201" lon="10.505284716334568"><ele>4.0</ele><time>2026-04-05T05:22:51Z</time></trkpt><trkpt lat="43.30484241589502" lon="10.505209673589354"><ele>4.0</ele><time>2026-04-05T05:22:55Z</time></trkpt><trkpt lat="43.30481210467969" lon="10.505131437739255"><ele>4.0</ele><time>2026-04-05T05:22:59Z</time></trkpt><trkpt lat="43.30478710038756" lon="10.50504284037647"><ele>3.9999999999999996</ele><time>2026-04-05T05:23:05Z</time></trkpt><trkpt lat="43.30475087658521" lon="10.504963627763763"><ele>4.0</ele><time>2026-04-05T05:23:10Z</time></trkpt><trkpt lat="43.304699375163636" lon="10.50489408700339"><ele>4.0</ele><time>2026-04-05T05:23:14Z</time></trkpt><trkpt lat="43.30465235703147" lon="10.50483622180687"><ele>3.9999999999999996</ele><time>2026-04-05T05:23:17Z</time></trkpt><trkpt lat="43.30461185139142" lon="10.504763961368086"><ele>4.0</ele><time>2026-04-05T05:23:21Z</time></trkpt><trkpt lat="43.30457392387302" lon="10.504694158291107"><ele>4.0</ele><time>2026-04-05T05:23:26Z</time></trkpt><trkpt lat="43.30453937523538" lon="10.504609157535217"><ele>4.0</ele><time>2026-04-05T05:23:30Z</time></trkpt><trkpt lat="43.30449411256465" lon="10.504513503553621"><ele>3.9999999999999996</ele><time>2026-04-05T05:23:34Z</time></trkpt><trkpt lat="43.30445832050863" lon="10.504437488865163"><ele>4.0</ele><time>2026-04-05T05:23:39Z</time></trkpt><trkpt lat="43.304417407984225" lon="10.504354034029003"><ele>4.0</ele><time>2026-04-05T05:23:44Z</time></trkpt><trkpt lat="43.30437628878446" lon="10.504271297062191"><ele>3.9999999999999996</ele><time>2026-04-05T05:23:49Z</time></trkpt><trkpt lat="43.304331433333026" lon="10.504199878628631"><ele>4.0</ele><time>2026-04-05T05:23:54Z</time></trkpt><trkpt lat="43.3042908060365" lon="10.504118578900353"><ele>4.0</ele><time>2026-04-05T05:23:59Z</time></trkpt><trkpt lat="43.30425148256848" lon="10.504043866195328"><ele>4.0</ele><time>2026-04-05T05:24:03Z</time></trkpt><trkpt lat="43.30421342085976" lon="10.503957010969495"><ele>3.9999999999999996</ele><time>2026-04-05T05:24:08Z</time></trkpt><trkpt lat="43.304175981788084" lon="10.503861709181015"><ele>4.0</ele><time>2026-04-05T05:24:13Z</time></trkpt><trkpt lat="43.30414691568455" lon="10.503776282310499"><ele>4.0</ele><time>2026-04-05T05:24:18Z</time></trkpt><trkpt lat="43.30411897261459" lon="10.503682215495424"><ele>3.9999999999999996</ele><time>2026-04-05T05:24:24Z</time></trkpt><trkpt lat="43.304087464972945" lon="10.50359604379654"><ele>4.0</ele><time>2026-04-05T05:24:28Z</time></trkpt><trkpt lat="43.304052577032515" lon="10.503521707382927"><ele>4.0</ele><time>2026-04-05T05:24:32Z</time></trkpt><trkpt lat="43.30401284120204" lon="10.503445725886126"><ele>4.0</ele><time>2026-04-05T05:24:36Z</time></trkpt><trkpt lat="43.30396982467469" lon="10.50336865861196"><ele>3.9999999999999996</ele><time>2026-04-05T05:24:40Z</time></trkpt><trkpt lat="43.303930892367674" lon="10.50328855772914"><ele>4.0</ele><time>2026-04-05T05:24:44Z</time></trkpt><trkpt lat="43.303896332624824" lon="10.50320802353625"><ele>4.0</ele><time>2026-04-05T05:24:49Z</time></trkpt><trkpt lat="43.30386681951823" lon="10.50312391383344"><ele>3.9999999999999996</ele><time>2026-04-05T05:24:55Z</time></trkpt><trkpt lat="43.30382305149481" lon="10.503043639106721"><ele>4.0</ele><time>2026-04-05T05:25:00Z</time></trkpt><trkpt lat="43.30377067486779" lon="10.50295524989337"><ele>4.0</ele><time>2026-04-05T05:25:04Z</time></trkpt><trkpt lat="43.30373330432445" lon="10.502870442602072"><ele>3.8571428571428568</ele><time>2026-04-05T05:25:08Z</time></trkpt><trkpt lat="43.30369308264579" lon="10.502782348942416"><ele>3.714285714285714</ele><time>2026-04-05T05:25:14Z</time></trkpt><trkpt lat="43.303643362361804" lon="10.50270439720552"><ele>3.571428571428571</ele><time>2026-04-05T05:25:18Z</time></trkpt><trkpt lat="43.30360023421856" lon="10.502622932863273"><ele>3.4285714285714284</ele><time>2026-04-05T05:25:24Z</time></trkpt><trkpt lat="43.30355995519288" lon="10.502547106510061"><ele>3.2857142857142856</ele><time>2026-04-05T05:25:29Z</time></trkpt><trkpt lat="43.3035196664503" lon="10.502480080194335"><ele>3.1428571428571423</ele><time>2026-04-05T05:25:33Z</time></trkpt><trkpt lat="43.303490241713384" lon="10.502392234739352"><ele>3.0</ele><time>2026-04-05T05:25:37Z</time></trkpt><trkpt lat="43.30345553919724" lon="10.502305189467627"><ele>2.9999999999999996</ele><time>2026-04-05T05:25:41Z</time></trkpt><trkpt lat="43.30342762044928" lon="10.502222805399667"><ele>3.0</ele><time>2026-04-05T05:25:45Z</time></trkpt><trkpt lat="43.30339155407028" lon="10.502137764196124"><ele>3.0</ele><time>2026-04-05T05:25:50Z</time></trkpt><trkpt lat="43.30334543724696" lon="10.50206114267471"><ele>3.0</ele><time>2026-04-05T05:25:55Z</time></trkpt><trkpt lat="43.303322634681045" lon="10.501959695186512"><ele>3.0</ele><time>2026-04-05T05:26:00Z</time></trkpt><trkpt lat="43.30329061226552" lon="10.501879886301733"><ele>2.9999999999999996</ele><time>2026-04-05T05:26:04Z</time></trkpt><trkpt lat="43.30325145065663" lon="10.501802393227509"><ele>3.0</ele><time>2026-04-05T05:26:08Z</time></trkpt><trkpt lat="43.30320686018525" lon="10.501737345173282"><ele>2.9999999999999996</ele><time>2026-04-05T05:26:12Z</time></trkpt><trkpt lat="43.303157053519854" lon="10.501658473617425"><ele>3.0</ele><time>2026-04-05T05:26:17Z</time></trkpt><trkpt lat="43.3031196748361" lon="10.501583828309295"><ele>3.0</ele><time>2026-04-05T05:26:22Z</time></trkpt><trkpt lat="43.30307772047894" lon="10.501509461083772"><ele>3.0</ele><time>2026-04-05T05:26:26Z</time></trkpt><trkpt lat="43.30302773908923" lon="10.50143031672092"><ele>3.0</ele><time>2026-04-05T05:26:31Z</time></trkpt><trkpt lat="43.302995366525394" lon="10.501348254366846"><ele>2.9999999999999996</ele><time>2026-04-05T05:26:36Z</time></trkpt><trkpt lat="43.30297023853058" lon="10.501266604072393"><ele>3.0</ele><time>2026-04-05T05:26:42Z</time></trkpt><trkpt lat="43.30292663999069" lon="10.501189539353682"><ele>3.1428571428571423</ele><time>2026-04-05T05:26:46Z</time></trkpt><trkpt lat="43.30288532054113" lon="10.501110060258194"><ele>3.2857142857142856</ele><time>2026-04-05T05:26:50Z</time></trkpt><trkpt lat="43.30284025072671" lon="10.501032239765252"><ele>3.4285714285714284</ele><time>2026-04-05T05:26:54Z</time></trkpt><trkpt lat="43.30279905531414" lon="10.500954526982433"><ele>3.571428571428571</ele><time>2026-04-05T05:26:58Z</time></trkpt><trkpt lat="43.30276468449301" lon="10.500875614954047"><ele>3.714285714285714</ele><time>2026-04-05T05:27:02Z</time></trkpt><trkpt lat="43.3027312558619" lon="10.50079373443483"><ele>3.8571428571428568</ele><time>2026-04-05T05:27:07Z</time></trkpt><trkpt lat="43.30268923679894" lon="10.500711429121536"><ele>4.0</ele><time>2026-04-05T05:27:12Z</time></trkpt><trkpt lat="43.302662452053376" lon="10.500622421888052"><ele>4.0</ele><time>2026-04-05T05:27:16Z</time></trkpt><trkpt lat="43.30261142440962" lon="10.50053565123642"><ele>3.9999999999999996</ele><time>2026-04-05T05:27:21Z</time></trkpt><trkpt lat="43.30255393548787" lon="10.500474495712119"><ele>4.0</ele><time>2026-04-05T05:27:25Z</time></trkpt><trkpt lat="43.30251727759079" lon="10.500402611789994"><ele>4.0</ele><time>2026-04-05T05:27:29Z</time></trkpt><trkpt lat="43.30250378800404" lon="10.500303147187546"><ele>3.9999999999999996</ele><time>2026-04-05T05:27:34Z</time></trkpt><trkpt lat="43.30247465520228" lon="10.500218959876563"><ele>4.0</ele><time>2026-04-05T05:27:39Z</time></trkpt><trkpt lat="43.30243992299661" lon="10.50014390586497"><ele>4.0</ele><time>2026-04-05T05:27:43Z</time></trkpt><trkpt lat="43.30239880591383" lon="10.500078044947404"><ele>4.0</ele><time>2026-04-05T05:27:46Z</time></trkpt><trkpt lat="43.30234423554777" lon="10.50000467569941"><ele>3.9999999999999996</ele><time>2026-04-05T05:27:51Z</time></trkpt><trkpt lat="43.302299791515104" lon="10.499935783701325"><ele>4.0</ele><time>2026-04-05T05:27:56Z</time></trkpt><trkpt lat="43.30226264894314" lon="10.499842266946677"><ele>4.0</ele><time>2026-04-05T05:28:02Z</time></trkpt><trkpt lat="43.30221993718489" lon="10.499762124526795"><ele>3.9999999999999996</ele><time>2026-04-05T05:28:06Z</time></trkpt><trkpt lat="43.302173109881274" lon="10.499680024400703"><ele>4.0</ele><time>2026-04-05T05:28:13Z</time></trkpt><trkpt lat="43.30214076871074" lon="10.499595476365084"><ele>4.0</ele><time>2026-04-05T05:28:18Z</time></trkpt><trkpt lat="43.30209726352855" lon="10.499513190366336"><ele>4.0</ele><time>2026-04-05T05:28:22Z</time></trkpt><trkpt lat="43.30206757693631" lon="10.499432151936432"><ele>3.9999999999999996</ele><time>2026-04-05T05:28:26Z</time></trkpt><trkpt lat="43.30203728630953" lon="10.49934430081782"><ele>4.0</ele><time>2026-04-05T05:28:31Z</time></trkpt><trkpt lat="43.301996921800004" lon="10.499273816543171"><ele>4.0</ele><time>2026-04-05T05:28:35Z</time></trkpt><trkpt lat="43.301958241155376" lon="10.49919236964955"><ele>3.9999999999999996</ele><time>2026-04-05T05:28:40Z</time></trkpt><trkpt lat="43.30192457833366" lon="10.499104073046567"><ele>4.0</ele><time>2026-04-05T05:28:44Z</time></trkpt><trkpt lat="43.30188214202127" lon="10.499026026399044"><ele>4.0</ele><time>2026-04-05T05:28:48Z</time></trkpt><trkpt lat="43.30184073872963" lon="10.498957141408248"><ele>4.0</ele><time>2026-04-05T05:28:53Z</time></trkpt><trkpt lat="43.30180558376754" lon="10.498861677206703"><ele>3.9999999999999996</ele><time>2026-04-05T05:28:58Z</time></trkpt><trkpt lat="43.30176129727637" lon="10.498792281876778"><ele>4.0</ele><time>2026-04-05T05:29:02Z</time></trkpt><trkpt lat="43.30172693203245" lon="10.49871560001749"><ele>4.0</ele><time>2026-04-05T05:29:06Z</time></trkpt><trkpt lat="43.301700435245266" lon="10.49863333781385"><ele>3.9999999999999996</ele><time>2026-04-05T05:29:10Z</time></trkpt><trkpt lat="43.30167118613031" lon="10.498552905850232"><ele>4.0</ele><time>2026-04-05T05:29:14Z</time></trkpt><trkpt lat="43.3016327217666" lon="10.498483535228324"><ele>4.0</ele><time>2026-04-05T05:29:18Z</time></trkpt><trkpt lat="43.30158120474849" lon="10.498398463303886"><ele>4.0</ele><time>2026-04-05T05:29:23Z</time></trkpt><trkpt lat="43.30154488194026" lon="10.498310215768281"><ele>3.9999999999999996</ele><time>2026-04-05T05:29:27Z</time></trkpt><trkpt lat="43.30149734321715" lon="10.49824055609632"><ele>4.0</ele><time>2026-04-05T05:29:31Z</time></trkpt><trkpt lat="43.301458024276464" lon="10.49814843852705"><ele>4.0</ele><time>2026-04-05T05:29:36Z</time></trkpt><trkpt lat="43.30144449316257" lon="10.498060502271523"><ele>3.9999999999999996</ele><time>2026-04-05T05:29:40Z</time></trkpt><trkpt lat="43.30140062492158" lon="10.497991974374894"><ele>4.0</ele><time>2026-04-05T05:29:43Z</time></trkpt><trkpt lat="43.30135838557501" lon="10.49791925322133"><ele>4.0</ele><time>2026-04-05T05:29:47Z</time></trkpt><trkpt lat="43.30131490577881" lon="10.497836679561958"><ele>3.8571428571428568</ele><time>2026-04-05T05:29:52Z</time></trkpt><trkpt lat="43.301270922688595" lon="10.497754342819556"><ele>3.714285714285714</ele><time>2026-04-05T05:29:57Z</time></trkpt><trkpt lat="43.30123378436501" lon="10.49768004736092"><ele>3.571428571428571</ele><time>2026-04-05T05:30:01Z</time></trkpt><trkpt lat="43.301193841405954" lon="10.497594328651022"><ele>3.4285714285714284</ele><time>2026-04-05T05:30:06Z</time></trkpt><trkpt lat="43.30115492117763" lon="10.497505637989264"><ele>3.2857142857142856</ele><time>2026-04-05T05:30:11Z</time></trkpt><trkpt lat="43.301119711597735" lon="10.49742253267579"><ele>3.1428571428571423</ele><time>2026-04-05T05:30:16Z</time></trkpt><trkpt lat="43.3010708515656" lon="10.497352727573643"><ele>3.0</ele><time>2026-04-05T05:30:21Z</time></trkpt><trkpt lat="43.30102883434241" lon="10.497269722348891"><ele>2.9999999999999996</ele><time>2026-04-05T05:30:26Z</time></trkpt><trkpt lat="43.300985226222274" lon="10.49720148571835"><ele>3.0</ele><time>2026-04-05T05:30:31Z</time></trkpt><trkpt lat="43.30095497296032" lon="10.497102884604091"><ele>3.0</ele><time>2026-04-05T05:30:36Z</time></trkpt><trkpt lat="43.3009129528654" lon="10.497025336637394"><ele>3.0</ele><time>2026-04-05T05:30:40Z</time></trkpt><trkpt lat="43.300884896329535" lon="10.496941851407781"><ele>3.0</ele><time>2026-04-05T05:30:44Z</time></trkpt><trkpt lat="43.30083447656232" lon="10.496866057852634"><ele>2.9999999999999996</ele><time>2026-04-05T05:30:50Z</time></trkpt><trkpt lat="43.30078310850028" lon="10.496811224866295"><ele>3.0</ele><time>2026-04-05T05:30:55Z</time></trkpt><trkpt lat="43.30071851415997" lon="10.496831843305007"><ele>2.9999999999999996</ele><time>2026-04-05T05:30:59Z</time></trkpt><trkpt lat="43.30065889034757" lon="10.496860625722555"><ele>3.0</ele><time>2026-04-05T05:31:04Z</time></trkpt><trkpt lat="43.30061574001347" lon="10.496788153135713"><ele>3.0</ele><time>2026-04-05T05:31:08Z</time></trkpt><trkpt lat="43.30062815747827" lon="10.496695534225355"><ele>3.0</ele><time>2026-04-05T05:31:15Z</time></trkpt><trkpt lat="43.30067436965284" lon="10.496623755246475"><ele>3.0</ele><time>2026-04-05T05:31:21Z</time></trkpt><trkpt lat="43.30063945356005" lon="10.496536310913433"><ele>2.9999999999999996</ele><time>2026-04-05T05:31:28Z</time></trkpt><trkpt lat="43.30062152960619" lon="10.49645180370651"><ele>3.0</ele><time>2026-04-05T05:31:35Z</time></trkpt><trkpt lat="43.30059625214326" lon="10.496369974235918"><ele>2.9999999999999996</ele><time>2026-04-05T05:31:40Z</time></trkpt><trkpt lat="43.30056874277254" lon="10.496290093344438"><ele>3.0</ele><time>2026-04-05T05:31:43Z</time></trkpt><trkpt lat="43.30054133601742" lon="10.496208856267025"><ele>3.0</ele><time>2026-04-05T05:31:47Z</time></trkpt><trkpt lat="43.30050283201792" lon="10.496139907055444"><ele>3.0</ele><time>2026-04-05T05:31:50Z</time></trkpt><trkpt lat="43.300461155318224" lon="10.49605983052515"><ele>3.0</ele><time>2026-04-05T05:31:54Z</time></trkpt><trkpt lat="43.30042871033321" lon="10.495984299535573"><ele>2.9999999999999996</ele><time>2026-04-05T05:31:58Z</time></trkpt><trkpt lat="43.300385873691525" lon="10.49591159054704"><ele>3.0</ele><time>2026-04-05T05:32:02Z</time></trkpt><trkpt lat="43.30035174262086" lon="10.495838828132683"><ele>2.9999999999999996</ele><time>2026-04-05T05:32:06Z</time></trkpt><trkpt lat="43.30032725928517" lon="10.495754833840039"><ele>3.0</ele><time>2026-04-05T05:32:11Z</time></trkpt><trkpt lat="43.30028340282769" lon="10.495663853262133"><ele>3.0</ele><time>2026-04-05T05:32:17Z</time></trkpt><trkpt lat="43.30024240690304" lon="10.49559421420692"><ele>3.0</ele><time>2026-04-05T05:32:20Z</time></trkpt><trkpt lat="43.30020948167351" lon="10.495518244355157"><ele>3.0</ele><time>2026-04-05T05:32:24Z</time></trkpt><trkpt lat="43.30017522158198" lon="10.495441813464087"><ele>2.9999999999999996</ele><time>2026-04-05T05:32:28Z</time></trkpt><trkpt lat="43.30012178546928" lon="10.49538433418818"><ele>3.0</ele><time>2026-04-05T05:32:32Z</time></trkpt><trkpt lat="43.30008533545663" lon="10.49531099877237"><ele>2.9999999999999996</ele><time>2026-04-05T05:32:37Z</time></trkpt><trkpt lat="43.30005413762685" lon="10.495222534903098"><ele>3.0</ele><time>2026-04-05T05:32:42Z</time></trkpt><trkpt lat="43.3000221893576" lon="10.495128268138997"><ele>3.0</ele><time>2026-04-05T05:32:47Z</time></trkpt><trkpt lat="43.2999773022819" lon="10.495037308764404"><ele>3.0</ele><time>2026-04-05T05:32:51Z</time></trkpt><trkpt lat="43.29992963843992" lon="10.494955558706001"><ele>3.0</ele><time>2026-04-05T05:32:55Z</time></trkpt><trkpt lat="43.2998888992539" lon="10.49487871967238"><ele>2.9999999999999996</ele><time>2026-04-05T05:32:59Z</time></trkpt><trkpt lat="43.29984551511921" lon="10.494808477329439"><ele>3.0</ele><time>2026-04-05T05:33:03Z</time></trkpt><trkpt lat="43.29980746951871" lon="10.494733082243332"><ele>2.9999999999999996</ele><time>2026-04-05T05:33:07Z</time></trkpt><trkpt lat="43.29976613915553" lon="10.49466348906133"><ele>3.0</ele><time>2026-04-05T05:33:12Z</time></trkpt><trkpt lat="43.299723437507794" lon="10.494581101952166"><ele>3.0</ele><time>2026-04-05T05:33:18Z</time></trkpt><trkpt lat="43.29968673066378" lon="10.494496407121789"><ele>3.0</ele><time>2026-04-05T05:33:23Z</time></trkpt><trkpt lat="43.29964330485177" lon="10.494423703239837"><ele>3.0</ele><time>2026-04-05T05:33:28Z</time></trkpt><trkpt lat="43.29959399147345" lon="10.494348613709912"><ele>2.9999999999999996</ele><time>2026-04-05T05:33:33Z</time></trkpt><trkpt lat="43.29955390290644" lon="10.494266209261427"><ele>3.0</ele><time>2026-04-05T05:33:37Z</time></trkpt><trkpt lat="43.29951356010003" lon="10.494196440724965"><ele>3.2857142857142856</ele><time>2026-04-05T05:33:41Z</time></trkpt><trkpt lat="43.299477565353286" lon="10.494120661984121"><ele>3.571428571428571</ele><time>2026-04-05T05:33:46Z</time></trkpt><trkpt lat="43.29944506299313" lon="10.49403906934728"><ele>3.8571428571428568</ele><time>2026-04-05T05:33:52Z</time></trkpt><trkpt lat="43.29938390842162" lon="10.493990960260964"><ele>4.142857142857142</ele><time>2026-04-05T05:33:57Z</time></trkpt><trkpt lat="43.29935814481276" lon="10.49390454651482"><ele>4.428571428571429</ele><time>2026-04-05T05:34:04Z</time></trkpt><trkpt lat="43.2993525797531" lon="10.493813644303629"><ele>4.714285714285714</ele><time>2026-04-05T05:34:07Z</time></trkpt><trkpt lat="43.29933774997131" lon="10.493704644439088"><ele>5.0</ele><time>2026-04-05T05:34:11Z</time></trkpt><trkpt lat="43.29930603263344" lon="10.493604230985275"><ele>5.0</ele><time>2026-04-05T05:34:16Z</time></trkpt><trkpt lat="43.29927259445469" lon="10.493525901470413"><ele>5.0</ele><time>2026-04-05T05:34:20Z</time></trkpt><trkpt lat="43.299244133102306" lon="10.49344441222844"><ele>5.0</ele><time>2026-04-05T05:34:24Z</time></trkpt><trkpt lat="43.299214449371796" lon="10.493360733095031"><ele>5.0</ele><time>2026-04-05T05:34:28Z</time></trkpt><trkpt lat="43.299177518405386" lon="10.493286134296348"><ele>5.0</ele><time>2026-04-05T05:34:32Z</time></trkpt><trkpt lat="43.299129311470274" lon="10.493216369133068"><ele>5.0</ele><time>2026-04-05T05:34:37Z</time></trkpt><trkpt lat="43.299080895228705" lon="10.493140039698043"><ele>5.0</ele><time>2026-04-05T05:34:42Z</time></trkpt><trkpt lat="43.299019091673294" lon="10.493081926979352"><ele>5.0</ele><time>2026-04-05T05:34:47Z</time></trkpt><trkpt lat="43.2989789668106" lon="10.49301396016843"><ele>5.0</ele><time>2026-04-05T05:34:52Z</time></trkpt><trkpt lat="43.298943221725665" lon="10.49292384912811"><ele>5.0</ele><time>2026-04-05T05:34:57Z</time></trkpt><trkpt lat="43.29890343342385" lon="10.492848207465709"><ele>5.0</ele><time>2026-04-05T05:35:01Z</time></trkpt><trkpt lat="43.29884820170822" lon="10.492792069005388"><ele>5.0</ele><time>2026-04-05T05:35:06Z</time></trkpt><trkpt lat="43.298782130582666" lon="10.4928505806451"><ele>5.0</ele><time>2026-04-05T05:35:11Z</time></trkpt><trkpt lat="43.29872582995097" lon="10.492895212550174"><ele>5.0</ele><time>2026-04-05T05:35:15Z</time></trkpt><trkpt lat="43.298675589765715" lon="10.49295166061031"><ele>4.714285714285714</ele><time>2026-04-05T05:35:20Z</time></trkpt><trkpt lat="43.29862493621628" lon="10.49301967890273"><ele>4.428571428571429</ele><time>2026-04-05T05:35:25Z</time></trkpt><trkpt lat="43.298561700102375" lon="10.49307173857876"><ele>4.142857142857142</ele><time>2026-04-05T05:35:30Z</time></trkpt><trkpt lat="43.298513816211695" lon="10.493129469616267"><ele>3.8571428571428568</ele><time>2026-04-05T05:35:34Z</time></trkpt><trkpt lat="43.298473473752324" lon="10.493197071355143"><ele>3.571428571428571</ele><time>2026-04-05T05:35:38Z</time></trkpt><trkpt lat="43.298412890044396" lon="10.493268017545827"><ele>3.2857142857142856</ele><time>2026-04-05T05:35:43Z</time></trkpt><trkpt lat="43.29836640976497" lon="10.493341004960419"><ele>3.0</ele><time>2026-04-05T05:35:48Z</time></trkpt><trkpt lat="43.29831659496109" lon="10.493399985050178"><ele>2.9999999999999996</ele><time>2026-04-05T05:35:53Z</time></trkpt><trkpt lat="43.29826451230982" lon="10.493474638092714"><ele>3.0</ele><time>2026-04-05T05:35:58Z</time></trkpt><trkpt lat="43.29820548881907" lon="10.493540004222423"><ele>3.0</ele><time>2026-04-05T05:36:03Z</time></trkpt><trkpt lat="43.29815158252465" lon="10.493592888711458"><ele>3.0</ele><time>2026-04-05T05:36:07Z</time></trkpt><trkpt lat="43.29810815249669" lon="10.493658932330373"><ele>3.0</ele><time>2026-04-05T05:36:11Z</time></trkpt><trkpt lat="43.298069422261555" lon="10.493730481133605"><ele>2.9999999999999996</ele><time>2026-04-05T05:36:15Z</time></trkpt><trkpt lat="43.298023705744654" lon="10.49380242944"><ele>3.0</ele><time>2026-04-05T05:36:20Z</time></trkpt><trkpt lat="43.29797627648693" lon="10.493884674527552"><ele>2.9999999999999996</ele><time>2026-04-05T05:36:25Z</time></trkpt><trkpt lat="43.297921333231585" lon="10.493945627010657"><ele>3.0</ele><time>2026-04-05T05:36:29Z</time></trkpt><trkpt lat="43.29787055964382" lon="10.494009209540957"><ele>3.0</ele><time>2026-04-05T05:36:34Z</time></trkpt><trkpt lat="43.29781706749648" lon="10.494078617613576"><ele>3.0</ele><time>2026-04-05T05:36:39Z</time></trkpt><trkpt lat="43.29775612409116" lon="10.494118279166987"><ele>3.0</ele><time>2026-04-05T05:36:45Z</time></trkpt><trkpt lat="43.297692228228264" lon="10.49418022320302"><ele>2.9999999999999996</ele><time>2026-04-05T05:36:50Z</time></trkpt><trkpt lat="43.29764753651003" lon="10.494252656805875"><ele>3.0</ele><time>2026-04-05T05:36:55Z</time></trkpt><trkpt lat="43.297587994790995" lon="10.494322588529988"><ele>2.9999999999999996</ele><time>2026-04-05T05:37:00Z</time></trkpt><trkpt lat="43.297531239859296" lon="10.494390248476117"><ele>3.0</ele><time>2026-04-05T05:37:05Z</time></trkpt><trkpt lat="43.29747419052024" lon="10.494451844829662"><ele>3.0</ele><time>2026-04-05T05:37:10Z</time></trkpt><trkpt lat="43.29742651726327" lon="10.494517158358303"><ele>3.0</ele><time>2026-04-05T05:37:15Z</time></trkpt><trkpt lat="43.2973730411573" lon="10.494586422179268"><ele>3.0</ele><time>2026-04-05T05:37:21Z</time></trkpt><trkpt lat="43.297319460261676" lon="10.494633320983809"><ele>2.9999999999999996</ele><time>2026-04-05T05:37:25Z</time></trkpt><trkpt lat="43.29727333530573" lon="10.494701378429037"><ele>3.0</ele><time>2026-04-05T05:37:29Z</time></trkpt><trkpt lat="43.29722261071841" lon="10.49477620340967"><ele>3.2857142857142856</ele><time>2026-04-05T05:37:34Z</time></trkpt><trkpt lat="43.29718653765962" lon="10.494847436703115"><ele>3.571428571428571</ele><time>2026-04-05T05:37:38Z</time></trkpt><trkpt lat="43.297119238116565" lon="10.494906174144413"><ele>3.8571428571428568</ele><time>2026-04-05T05:37:42Z</time></trkpt><trkpt lat="43.29706864460861" lon="10.494967042675325"><ele>4.142857142857142</ele><time>2026-04-05T05:37:46Z</time></trkpt><trkpt lat="43.29701740121279" lon="10.495045280045806"><ele>4.428571428571429</ele><time>2026-04-05T05:37:51Z</time></trkpt><trkpt lat="43.29697351235544" lon="10.49511633570967"><ele>4.714285714285714</ele><time>2026-04-05T05:37:56Z</time></trkpt><trkpt lat="43.29691869700385" lon="10.495189743430727"><ele>5.0</ele><time>2026-04-05T05:38:02Z</time></trkpt><trkpt lat="43.29687498719224" lon="10.495254764365281"><ele>5.0</ele><time>2026-04-05T05:38:06Z</time></trkpt><trkpt lat="43.29682846699763" lon="10.495314562029765"><ele>5.0</ele><time>2026-04-05T05:38:10Z</time></trkpt><trkpt lat="43.296776836193665" lon="10.495379189525645"><ele>5.0</ele><time>2026-04-05T05:38:15Z</time></trkpt><trkpt lat="43.29672087344708" lon="10.495444010227871"><ele>5.0</ele><time>2026-04-05T05:38:20Z</time></trkpt><trkpt lat="43.29666400318874" lon="10.495511015792962"><ele>5.0</ele><time>2026-04-05T05:38:26Z</time></trkpt><trkpt lat="43.296617755599875" lon="10.495575658568214"><ele>5.0</ele><time>2026-04-05T05:38:31Z</time></trkpt><trkpt lat="43.29656208622214" lon="10.495643118424644"><ele>5.0</ele><time>2026-04-05T05:38:36Z</time></trkpt><trkpt lat="43.296502764511175" lon="10.495703339828857"><ele>4.857142857142857</ele><time>2026-04-05T05:38:41Z</time></trkpt><trkpt lat="43.29645433487959" lon="10.49578282160836"><ele>4.714285714285714</ele><time>2026-04-05T05:38:46Z</time></trkpt><trkpt lat="43.296399730276086" lon="10.49584320814514"><ele>4.571428571428571</ele><time>2026-04-05T05:38:50Z</time></trkpt><trkpt lat="43.29635048675859" lon="10.495911636139773"><ele>4.428571428571429</ele><time>2026-04-05T05:38:55Z</time></trkpt><trkpt lat="43.29629958965245" lon="10.495974565880667"><ele>4.285714285714286</ele><time>2026-04-05T05:39:01Z</time></trkpt><trkpt lat="43.29624093253827" lon="10.49602676001381"><ele>4.142857142857142</ele><time>2026-04-05T05:39:06Z</time></trkpt><trkpt lat="43.29618833141778" lon="10.496081147748797"><ele>4.0</ele><time>2026-04-05T05:39:10Z</time></trkpt><trkpt lat="43.29613505264245" lon="10.496144956924702"><ele>3.8571428571428568</ele><time>2026-04-05T05:39:14Z</time></trkpt><trkpt lat="43.2960785490256" lon="10.496197372966565"><ele>3.714285714285714</ele><time>2026-04-05T05:39:18Z</time></trkpt><trkpt lat="43.2960239906221" lon="10.496250179532835"><ele>3.571428571428571</ele><time>2026-04-05T05:39:22Z</time></trkpt><trkpt lat="43.2959577589846" lon="10.496312103352201"><ele>3.4285714285714284</ele><time>2026-04-05T05:39:27Z</time></trkpt><trkpt lat="43.29590655481859" lon="10.496363282789913"><ele>3.2857142857142856</ele><time>2026-04-05T05:39:31Z</time></trkpt><trkpt lat="43.29584433602063" lon="10.496415720222783"><ele>3.1428571428571423</ele><time>2026-04-05T05:39:36Z</time></trkpt><trkpt lat="43.29578395771546" lon="10.496483986677989"><ele>3.0</ele><time>2026-04-05T05:39:41Z</time></trkpt><trkpt lat="43.295728085904905" lon="10.496542333959"><ele>3.0</ele><time>2026-04-05T05:39:46Z</time></trkpt><trkpt lat="43.29566631472518" lon="10.496598151067758"><ele>3.0</ele><time>2026-04-05T05:39:51Z</time></trkpt><trkpt lat="43.29557955579214" lon="10.496661512817518"><ele>3.0</ele><time>2026-04-05T05:40:53Z</time></trkpt><trkpt lat="43.29553706144237" lon="10.496735340624376"><ele>3.0</ele><time>2026-04-05T05:41:07Z</time></trkpt><trkpt lat="43.295474180564426" lon="10.496793996617232"><ele>3.0</ele><time>2026-04-05T05:41:12Z</time></trkpt><trkpt lat="43.295415424601444" lon="10.496856342600902"><ele>3.0</ele><time>2026-04-05T05:41:17Z</time></trkpt><trkpt lat="43.29535536552532" lon="10.496906812391464"><ele>3.1428571428571423</ele><time>2026-04-05T05:41:22Z</time></trkpt><trkpt lat="43.29529840411688" lon="10.496962229020399"><ele>3.2857142857142856</ele><time>2026-04-05T05:41:27Z</time></trkpt><trkpt lat="43.29524423274344" lon="10.49702204855587"><ele>3.4285714285714284</ele><time>2026-04-05T05:41:33Z</time></trkpt><trkpt lat="43.2951947416385" lon="10.497077147133139"><ele>3.571428571428571</ele><time>2026-04-05T05:41:38Z</time></trkpt><trkpt lat="43.2951405125098" lon="10.49712304845022"><ele>3.714285714285714</ele><time>2026-04-05T05:41:42Z</time></trkpt><trkpt lat="43.29507987950852" lon="10.497160452991817"><ele>3.8571428571428568</ele><time>2026-04-05T05:41:46Z</time></trkpt><trkpt lat="43.29501021204368" lon="10.49721793550281"><ele>4.0</ele><time>2026-04-05T05:41:51Z</time></trkpt><trkpt lat="43.29496162893395" lon="10.497289759062774"><ele>4.0</ele><time>2026-04-05T05:41:55Z</time></trkpt><trkpt lat="43.29490923986605" lon="10.497346499818159"><ele>3.9999999999999996</ele><time>2026-04-05T05:41:59Z</time></trkpt><trkpt lat="43.29485394208182" lon="10.497413204305065"><ele>4.0</ele><time>2026-04-05T05:42:04Z</time></trkpt><trkpt lat="43.294800464646585" lon="10.497465400201662"><ele>4.0</ele><time>2026-04-05T05:42:09Z</time></trkpt><trkpt lat="43.294741023637236" lon="10.49751049335252"><ele>3.9999999999999996</ele><time>2026-04-05T05:42:13Z</time></trkpt><trkpt lat="43.2946768860873" lon="10.497564728576528"><ele>4.0</ele><time>2026-04-05T05:42:18Z</time></trkpt><trkpt lat="43.29462094794259" lon="10.49763655433739"><ele>4.0</ele><time>2026-04-05T05:42:23Z</time></trkpt><trkpt lat="43.294569288762254" lon="10.497686388655588"><ele>3.714285714285714</ele><time>2026-04-05T05:42:27Z</time></trkpt><trkpt lat="43.294511707106345" lon="10.497739932307836"><ele>3.428571428571428</ele><time>2026-04-05T05:42:32Z</time></trkpt><trkpt lat="43.294450849941654" lon="10.49780883994276"><ele>3.142857142857143</ele><time>2026-04-05T05:42:37Z</time></trkpt><trkpt lat="43.294388740522336" lon="10.497860862035223"><ele>2.8571428571428568</ele><time>2026-04-05T05:42:42Z</time></trkpt><trkpt lat="43.29433203985524" lon="10.497908875005349"><ele>2.571428571428571</ele><time>2026-04-05T05:42:47Z</time></trkpt><trkpt lat="43.29427449362466" lon="10.497979948747892"><ele>2.2857142857142856</ele><time>2026-04-05T05:42:52Z</time></trkpt><trkpt lat="43.294216986286436" lon="10.498030634431517"><ele>2.0</ele><time>2026-04-05T05:42:56Z</time></trkpt><trkpt lat="43.29415361318219" lon="10.498076434189338"><ele>1.857142857142857</ele><time>2026-04-05T05:43:01Z</time></trkpt><trkpt lat="43.29408969381145" lon="10.498140003727515"><ele>1.714285714285714</ele><time>2026-04-05T05:43:06Z</time></trkpt><trkpt lat="43.294029797458705" lon="10.498200616096776"><ele>1.5714285714285714</ele><time>2026-04-05T05:43:10Z</time></trkpt><trkpt lat="43.293974865374764" lon="10.498251799696192"><ele>1.4285714285714284</ele><time>2026-04-05T05:43:15Z</time></trkpt><trkpt lat="43.29391697303115" lon="10.498302931553654"><ele>1.2857142857142856</ele><time>2026-04-05T05:43:19Z</time></trkpt><trkpt lat="43.29386511187085" lon="10.49835708781068"><ele>1.1428571428571428</ele><time>2026-04-05T05:43:23Z</time></trkpt><trkpt lat="43.29381603824286" lon="10.498413151234073"><ele>1.0</ele><time>2026-04-05T05:43:28Z</time></trkpt><trkpt lat="43.29375928891291" lon="10.498472968069004"><ele>1.0</ele><time>2026-04-05T05:43:33Z</time></trkpt><trkpt lat="43.29370129585031" lon="10.498524339188194"><ele>0.9999999999999999</ele><time>2026-04-05T05:43:38Z</time></trkpt><trkpt lat="43.29364650737088" lon="10.49857444180896"><ele>1.0</ele><time>2026-04-05T05:43:42Z</time></trkpt><trkpt lat="43.293593950636854" lon="10.498639822477681"><ele>1.0</ele><time>2026-04-05T05:43:47Z</time></trkpt><trkpt lat="43.293538084900284" lon="10.498698963445321"><ele>0.9999999999999999</ele><time>2026-04-05T05:43:53Z</time></trkpt><trkpt lat="43.29348697109029" lon="10.498753975185858"><ele>1.0</ele><time>2026-04-05T05:43:57Z</time></trkpt><trkpt lat="43.29342555817772" lon="10.498803324340424"><ele>1.0</ele><time>2026-04-05T05:44:01Z</time></trkpt><trkpt lat="43.293355077148206" lon="10.498850799405815"><ele>1.0</ele><time>2026-04-05T05:44:06Z</time></trkpt><trkpt lat="43.29329208299269" lon="10.498905294095252"><ele>0.9999999999999999</ele><time>2026-04-05T05:44:11Z</time></trkpt><trkpt lat="43.293237141457006" lon="10.498959024651953"><ele>1.0</ele><time>2026-04-05T05:44:16Z</time></trkpt><trkpt lat="43.293179213059716" lon="10.499024060492555"><ele>1.0</ele><time>2026-04-05T05:44:21Z</time></trkpt><trkpt lat="43.29312963485266" lon="10.499084952842216"><ele>0.9999999999999999</ele><time>2026-04-05T05:44:25Z</time></trkpt><trkpt lat="43.29306604630508" lon="10.499147597899524"><ele>1.0</ele><time>2026-04-05T05:44:33Z</time></trkpt><trkpt lat="43.29300465468514" lon="10.499189107970096"><ele>1.0</ele><time>2026-04-05T05:44:39Z</time></trkpt><trkpt lat="43.29295970046275" lon="10.499252467161755"><ele>1.0</ele><time>2026-04-05T05:44:45Z</time></trkpt><trkpt lat="43.29291194637114" lon="10.499322267984699"><ele>0.9999999999999999</ele><time>2026-04-05T05:44:49Z</time></trkpt><trkpt lat="43.292859056884296" lon="10.499391840008244"><ele>1.0</ele><time>2026-04-05T05:44:54Z</time></trkpt><trkpt lat="43.29280496837982" lon="10.499474645762547"><ele>1.0</ele><time>2026-04-05T05:44:58Z</time></trkpt><trkpt lat="43.29275746582661" lon="10.499541717779753"><ele>0.9999999999999999</ele><time>2026-04-05T05:45:01Z</time></trkpt><trkpt lat="43.292688599917014" lon="10.499596590377278"><ele>1.0</ele><time>2026-04-05T05:45:06Z</time></trkpt><trkpt lat="43.29262240619582" lon="10.499629883632387"><ele>1.0</ele><time>2026-04-05T05:45:10Z</time></trkpt><trkpt lat="43.29256652395639" lon="10.499674289337626"><ele>1.2857142857142856</ele><time>2026-04-05T05:45:14Z</time></trkpt><trkpt lat="43.29251164207854" lon="10.499720697352505"><ele>1.5714285714285712</ele><time>2026-04-05T05:45:19Z</time></trkpt><trkpt lat="43.292455854343544" lon="10.499784574437331"><ele>1.857142857142857</ele><time>2026-04-05T05:45:24Z</time></trkpt><trkpt lat="43.292406146056834" lon="10.499847846445194"><ele>2.142857142857143</ele><time>2026-04-05T05:45:29Z</time></trkpt><trkpt lat="43.292341267389205" lon="10.499880661503159"><ele>2.4285714285714284</ele><time>2026-04-05T05:45:34Z</time></trkpt><trkpt lat="43.292401309213524" lon="10.499813049843524"><ele>2.714285714285714</ele><time>2026-04-05T05:45:45Z</time></trkpt><trkpt lat="43.29246335531469" lon="10.499762355963606"><ele>3.0</ele><time>2026-04-05T05:45:49Z</time></trkpt><trkpt lat="43.29252572237181" lon="10.499715538960425"><ele>2.9999999999999996</ele><time>2026-04-05T05:45:53Z</time></trkpt><trkpt lat="43.29257897315284" lon="10.499645942259855"><ele>3.0</ele><time>2026-04-05T05:45:58Z</time></trkpt><trkpt lat="43.29263748852525" lon="10.499582999674695"><ele>3.0</ele><time>2026-04-05T05:46:04Z</time></trkpt><trkpt lat="43.2926920867471" lon="10.499530408393962"><ele>3.0</ele><time>2026-04-05T05:46:09Z</time></trkpt><trkpt lat="43.29275364665102" lon="10.499487333710077"><ele>3.0</ele><time>2026-04-05T05:46:13Z</time></trkpt><trkpt lat="43.29280511106774" lon="10.499432027830666"><ele>2.9999999999999996</ele><time>2026-04-05T05:46:18Z</time></trkpt><trkpt lat="43.29285331203237" lon="10.499371413894568"><ele>3.0</ele><time>2026-04-05T05:46:25Z</time></trkpt><trkpt lat="43.29291150727586" lon="10.499329799541648"><ele>2.8571428571428568</ele><time>2026-04-05T05:46:29Z</time></trkpt><trkpt lat="43.29296174830802" lon="10.499246934766505"><ele>2.7142857142857144</ele><time>2026-04-05T05:46:33Z</time></trkpt><trkpt lat="43.2930154854737" lon="10.49920170979908"><ele>2.571428571428571</ele><time>2026-04-05T05:46:36Z</time></trkpt><trkpt lat="43.29307475757941" lon="10.49914283356342"><ele>2.4285714285714284</ele><time>2026-04-05T05:46:40Z</time></trkpt><trkpt lat="43.293128193637926" lon="10.499094395867736"><ele>2.2857142857142856</ele><time>2026-04-05T05:46:44Z</time></trkpt><trkpt lat="43.29317925661261" lon="10.499036975066812"><ele>2.142857142857143</ele><time>2026-04-05T05:46:48Z</time></trkpt><trkpt lat="43.2932280778278" lon="10.498974727489625"><ele>2.0</ele><time>2026-04-05T05:46:52Z</time></trkpt><trkpt lat="43.29328908216666" lon="10.498912450905443"><ele>2.0</ele><time>2026-04-05T05:46:57Z</time></trkpt><trkpt lat="43.29335195004476" lon="10.498855055504354"><ele>1.9999999999999998</ele><time>2026-04-05T05:47:02Z</time></trkpt><trkpt lat="43.29341131194064" lon="10.498788843998874"><ele>2.0</ele><time>2026-04-05T05:47:07Z</time></trkpt><trkpt lat="43.293474006462105" lon="10.498729991034994"><ele>2.0</ele><time>2026-04-05T05:47:12Z</time></trkpt><trkpt lat="43.293534105017784" lon="10.498669434908571"><ele>1.9999999999999998</ele><time>2026-04-05T05:47:17Z</time></trkpt><trkpt lat="43.293592981549196" lon="10.498606666387051"><ele>2.0</ele><time>2026-04-05T05:47:22Z</time></trkpt><trkpt lat="43.29364521165002" lon="10.498556302249941"><ele>2.0</ele><time>2026-04-05T05:47:26Z</time></trkpt><trkpt lat="43.293700582806004" lon="10.498505134835307"><ele>1.857142857142857</ele><time>2026-04-05T05:47:31Z</time></trkpt><trkpt lat="43.293755748226886" lon="10.498438953907101"><ele>1.714285714285714</ele><time>2026-04-05T05:47:36Z</time></trkpt><trkpt lat="43.29380431329145" lon="10.498379616899516"><ele>1.5714285714285714</ele><time>2026-04-05T05:47:41Z</time></trkpt><trkpt lat="43.29385661920568" lon="10.498313343253598"><ele>1.4285714285714284</ele><time>2026-04-05T05:47:45Z</time></trkpt><trkpt lat="43.29392148434816" lon="10.498255726702263"><ele>1.2857142857142856</ele><time>2026-04-05T05:47:50Z</time></trkpt><trkpt lat="43.293977324293984" lon="10.498212063039832"><ele>1.1428571428571428</ele><time>2026-04-05T05:47:54Z</time></trkpt><trkpt lat="43.294040954558994" lon="10.49814815052816"><ele>1.0</ele><time>2026-04-05T05:47:59Z</time></trkpt><trkpt lat="43.2941067489978" lon="10.498089445182123"><ele>1.1666666666666665</ele><time>2026-04-05T05:48:04Z</time></trkpt><trkpt lat="43.294170297276324" lon="10.498050513221413"><ele>1.3333333333333333</ele><time>2026-04-05T05:48:09Z</time></trkpt><trkpt lat="43.29423530712483" lon="10.498008775629575"><ele>1.5</ele><time>2026-04-05T05:48:14Z</time></trkpt><trkpt lat="43.29429390476046" lon="10.497948197705577"><ele>1.6666666666666665</ele><time>2026-04-05T05:48:19Z</time></trkpt><trkpt lat="43.29435589638776" lon="10.497897733752291"><ele>1.8333333333333333</ele><time>2026-04-05T05:48:24Z</time></trkpt><trkpt lat="43.294404954821346" lon="10.497795024771056"><ele>2.0</ele><time>2026-04-05T05:49:25.999Z</time></trkpt><trkpt lat="43.29444581180452" lon="10.497703208273835"><ele>2.0</ele><time>2026-04-05T05:49:31.999Z</time></trkpt><trkpt lat="43.29450206732352" lon="10.497638165825736"><ele>1.9999999999999998</ele><time>2026-04-05T05:49:36.999Z</time></trkpt><trkpt lat="43.294569112547705" lon="10.497596010115458"><ele>2.0</ele><time>2026-04-05T05:49:41.999Z</time></trkpt><trkpt lat="43.294635541838964" lon="10.49756484801556"><ele>2.0</ele><time>2026-04-05T05:49:46.999Z</time></trkpt><trkpt lat="43.294687342219916" lon="10.497501380203843"><ele>1.9999999999999998</ele><time>2026-04-05T05:49:50.999Z</time></trkpt><trkpt lat="43.29474815959289" lon="10.497459528538936"><ele>2.0</ele><time>2026-04-05T05:49:54.999Z</time></trkpt><trkpt lat="43.29481033442608" lon="10.497411663771173"><ele>2.0</ele><time>2026-04-05T05:49:58.999Z</time></trkpt><trkpt lat="43.29488142920967" lon="10.497367566333711"><ele>2.2857142857142856</ele><time>2026-04-05T05:50:03.999Z</time></trkpt><trkpt lat="43.294928575173095" lon="10.497308256269621"><ele>2.571428571428571</ele><time>2026-04-05T05:50:07.999Z</time></trkpt><trkpt lat="43.29497677775811" lon="10.497252141749925"><ele>2.8571428571428568</ele><time>2026-04-05T05:50:11.999Z</time></trkpt><trkpt lat="43.29503448863187" lon="10.497201634345688"><ele>3.142857142857143</ele><time>2026-04-05T05:50:16.999Z</time></trkpt><trkpt lat="43.295097898493346" lon="10.497140253189235"><ele>3.428571428571428</ele><time>2026-04-05T05:50:21.999Z</time></trkpt><trkpt lat="43.29515279819711" lon="10.497075844533198"><ele>3.714285714285714</ele><time>2026-04-05T05:50:26.999Z</time></trkpt><trkpt lat="43.295220410261145" lon="10.497017967450827"><ele>4.0</ele><time>2026-04-05T05:50:31.999Z</time></trkpt><trkpt lat="43.29528095191378" lon="10.496948695545191"><ele>3.8571428571428568</ele><time>2026-04-05T05:50:36.999Z</time></trkpt><trkpt lat="43.295343457473294" lon="10.496889719427779"><ele>3.714285714285714</ele><time>2026-04-05T05:50:41.999Z</time></trkpt><trkpt lat="43.29539585045066" lon="10.496832854830886"><ele>3.571428571428571</ele><time>2026-04-05T05:50:46.999Z</time></trkpt><trkpt lat="43.295451364556165" lon="10.49678967774303"><ele>3.4285714285714284</ele><time>2026-04-05T05:50:50.999Z</time></trkpt><trkpt lat="43.29550652078555" lon="10.496723514253567"><ele>3.2857142857142856</ele><time>2026-04-05T05:50:55.999Z</time></trkpt><trkpt lat="43.295564700881904" lon="10.496658323033923"><ele>3.1428571428571423</ele><time>2026-04-05T05:51:00.999Z</time></trkpt><trkpt lat="43.2956211469976" lon="10.496601057139266"><ele>3.0</ele><time>2026-04-05T05:51:05.999Z</time></trkpt><trkpt lat="43.29568219857602" lon="10.49654549134781"><ele>2.9999999999999996</ele><time>2026-04-05T05:51:10.999Z</time></trkpt><trkpt lat="43.29574167766512" lon="10.496478629601286"><ele>3.0</ele><time>2026-04-05T05:51:15.999Z</time></trkpt><trkpt lat="43.295792261015436" lon="10.496423992903699"><ele>3.0</ele><time>2026-04-05T05:51:19.999Z</time></trkpt><trkpt lat="43.295844360928584" lon="10.496368286249224"><ele>3.0</ele><time>2026-04-05T05:51:24.999Z</time></trkpt><trkpt lat="43.29589963629766" lon="10.49632372398314"><ele>3.0</ele><time>2026-04-05T05:51:29.999Z</time></trkpt><trkpt lat="43.29595848929162" lon="10.496252936163339"><ele>2.9999999999999996</ele><time>2026-04-05T05:51:34.999Z</time></trkpt><trkpt lat="43.29601603838501" lon="10.49621388884968"><ele>3.0</ele><time>2026-04-05T05:51:38.999Z</time></trkpt><trkpt lat="43.29607814223056" lon="10.496156644651771"><ele>2.8571428571428568</ele><time>2026-04-05T05:51:43.999Z</time></trkpt><trkpt lat="43.296131757302526" lon="10.49610120086201"><ele>2.7142857142857144</ele><time>2026-04-05T05:51:48.999Z</time></trkpt><trkpt lat="43.29618687436864" lon="10.49605071489286"><ele>2.571428571428571</ele><time>2026-04-05T05:51:53.999Z</time></trkpt><trkpt lat="43.29623669438561" lon="10.495991672456666"><ele>2.4285714285714284</ele><time>2026-04-05T05:51:57.999Z</time></trkpt><trkpt lat="43.29629640830122" lon="10.495919075937817"><ele>2.2857142857142856</ele><time>2026-04-05T05:52:02.999Z</time></trkpt><trkpt lat="43.29635811291611" lon="10.49586587583271"><ele>2.142857142857143</ele><time>2026-04-05T05:52:07.999Z</time></trkpt><trkpt lat="43.296409516054474" lon="10.495796387223914"><ele>2.0</ele><time>2026-04-05T05:52:11.999Z</time></trkpt><trkpt lat="43.29646340566096" lon="10.495729808049996"><ele>2.2857142857142856</ele><time>2026-04-05T05:52:16.999Z</time></trkpt><trkpt lat="43.29650531472308" lon="10.495657537113072"><ele>2.571428571428571</ele><time>2026-04-05T05:52:21.999Z</time></trkpt><trkpt lat="43.29655579411131" lon="10.495594787680108"><ele>2.8571428571428568</ele><time>2026-04-05T05:52:26.999Z</time></trkpt><trkpt lat="43.29661135083745" lon="10.495531376833682"><ele>3.142857142857143</ele><time>2026-04-05T05:52:31.999Z</time></trkpt><trkpt lat="43.2966677601721" lon="10.495464899790417"><ele>3.428571428571428</ele><time>2026-04-05T05:52:35.999Z</time></trkpt><trkpt lat="43.29671937369451" lon="10.495406193630531"><ele>3.714285714285714</ele><time>2026-04-05T05:52:39.999Z</time></trkpt><trkpt lat="43.29677815179015" lon="10.495340861036299"><ele>4.0</ele><time>2026-04-05T05:52:45.999Z</time></trkpt><trkpt lat="43.29683500501828" lon="10.495287146697036"><ele>4.142857142857142</ele><time>2026-04-05T05:52:50.999Z</time></trkpt><trkpt lat="43.296889534338796" lon="10.495227838981602"><ele>4.285714285714286</ele><time>2026-04-05T05:52:54.999Z</time></trkpt><trkpt lat="43.29694228887161" lon="10.495146004292907"><ele>4.428571428571429</ele><time>2026-04-05T05:52:59.999Z</time></trkpt><trkpt lat="43.2969832911807" lon="10.495079800143014"><ele>4.571428571428571</ele><time>2026-04-05T05:53:04.999Z</time></trkpt><trkpt lat="43.297023919976795" lon="10.495000926359292"><ele>4.714285714285714</ele><time>2026-04-05T05:53:09.999Z</time></trkpt><trkpt lat="43.29707989718074" lon="10.494938069641607"><ele>4.857142857142857</ele><time>2026-04-05T05:53:14.999Z</time></trkpt><trkpt lat="43.29711997391828" lon="10.494857398052147"><ele>5.0</ele><time>2026-04-05T05:53:19.999Z</time></trkpt><trkpt lat="43.297172849831476" lon="10.494809677716056"><ele>5.0</ele><time>2026-04-05T05:53:23.999Z</time></trkpt><trkpt lat="43.29722797485147" lon="10.494767801049592"><ele>5.0</ele><time>2026-04-05T05:53:27.999Z</time></trkpt><trkpt lat="43.297287868971175" lon="10.494724679099132"><ele>5.0</ele><time>2026-04-05T05:53:31.999Z</time></trkpt><trkpt lat="43.29734133221809" lon="10.494656656953417"><ele>5.0</ele><time>2026-04-05T05:53:36.999Z</time></trkpt><trkpt lat="43.297376512706876" lon="10.494578681027374"><ele>5.0</ele><time>2026-04-05T05:53:40.999Z</time></trkpt><trkpt lat="43.297416951614984" lon="10.494509572939036"><ele>5.0</ele><time>2026-04-05T05:53:44.999Z</time></trkpt><trkpt lat="43.297471110049294" lon="10.49443780115815"><ele>5.0</ele><time>2026-04-05T05:53:49.999Z</time></trkpt><trkpt lat="43.29752547650867" lon="10.494362573979869"><ele>4.714285714285714</ele><time>2026-04-05T05:53:54.999Z</time></trkpt><trkpt lat="43.29757516321599" lon="10.494299499029658"><ele>4.428571428571429</ele><time>2026-04-05T05:53:59.999Z</time></trkpt><trkpt lat="43.297632342774556" lon="10.494242346782203"><ele>4.142857142857142</ele><time>2026-04-05T05:54:03.999Z</time></trkpt><trkpt lat="43.297689632907854" lon="10.494185822477471"><ele>3.8571428571428568</ele><time>2026-04-05T05:54:08.999Z</time></trkpt><trkpt lat="43.29773707964214" lon="10.494116220518626"><ele>3.571428571428571</ele><time>2026-04-05T05:54:13.999Z</time></trkpt><trkpt lat="43.29779132015765" lon="10.494049822496477"><ele>3.2857142857142856</ele><time>2026-04-05T05:54:18.999Z</time></trkpt><trkpt lat="43.2978449204121" lon="10.493993295249416"><ele>3.0</ele><time>2026-04-05T05:54:23.999Z</time></trkpt><trkpt lat="43.29789552464156" lon="10.49391622958645"><ele>2.9999999999999996</ele><time>2026-04-05T05:54:28.999Z</time></trkpt><trkpt lat="43.29794120522391" lon="10.493835360686637"><ele>3.0</ele><time>2026-04-05T05:54:33.999Z</time></trkpt><trkpt lat="43.29799614898495" lon="10.493777299003384"><ele>3.0</ele><time>2026-04-05T05:54:38.999Z</time></trkpt><trkpt lat="43.298048434518186" lon="10.493720340532565"><ele>3.0</ele><time>2026-04-05T05:54:43.999Z</time></trkpt><trkpt lat="43.298099258178866" lon="10.49366647246296"><ele>3.0</ele><time>2026-04-05T05:54:47.999Z</time></trkpt><trkpt lat="43.298149028720715" lon="10.493599599901806"><ele>2.9999999999999996</ele><time>2026-04-05T05:54:52.999Z</time></trkpt><trkpt lat="43.29819771087668" lon="10.49353400777959"><ele>3.0</ele><time>2026-04-05T05:54:57.999Z</time></trkpt><trkpt lat="43.298251184878374" lon="10.493462734418095"><ele>2.9999999999999996</ele><time>2026-04-05T05:55:02.999Z</time></trkpt><trkpt lat="43.29830373216246" lon="10.493402452716253"><ele>3.0</ele><time>2026-04-05T05:55:06.999Z</time></trkpt><trkpt lat="43.29836087848709" lon="10.49333682837104"><ele>3.0</ele><time>2026-04-05T05:55:11.999Z</time></trkpt><trkpt lat="43.298411026995375" lon="10.493267841151868"><ele>3.0</ele><time>2026-04-05T05:55:16.999Z</time></trkpt><trkpt lat="43.29844884568936" lon="10.493194391356964"><ele>3.0</ele><time>2026-04-05T05:55:21.999Z</time></trkpt><trkpt lat="43.2984903399862" lon="10.493117332999093"><ele>2.9999999999999996</ele><time>2026-04-05T05:55:26.999Z</time></trkpt><trkpt lat="43.29854936070688" lon="10.493059189936865"><ele>3.0</ele><time>2026-04-05T05:55:31.999Z</time></trkpt><trkpt lat="43.29861227551636" lon="10.493025331538787"><ele>2.9999999999999996</ele><time>2026-04-05T05:55:35.999Z</time></trkpt><trkpt lat="43.29866668136084" lon="10.492951354380756"><ele>3.0</ele><time>2026-04-05T05:55:40.999Z</time></trkpt><trkpt lat="43.29870379536123" lon="10.492870587900375"><ele>3.0</ele><time>2026-04-05T05:55:44.999Z</time></trkpt><trkpt lat="43.29873858475943" lon="10.492782565158132"><ele>3.0</ele><time>2026-04-05T05:55:48.999Z</time></trkpt><trkpt lat="43.2987963326635" lon="10.492735195364506"><ele>3.0</ele><time>2026-04-05T05:55:51.999Z</time></trkpt><trkpt lat="43.298862076094714" lon="10.492678561420693"><ele>2.9999999999999996</ele><time>2026-04-05T05:55:55.999Z</time></trkpt><trkpt lat="43.29891226726889" lon="10.492625682615616"><ele>3.0</ele><time>2026-04-05T05:55:59.999Z</time></trkpt><trkpt lat="43.2989671454886" lon="10.492561997558898"><ele>2.9999999999999996</ele><time>2026-04-05T05:56:04.999Z</time></trkpt><trkpt lat="43.29902451911519" lon="10.492500988611338"><ele>3.0</ele><time>2026-04-05T05:56:09.999Z</time></trkpt><trkpt lat="43.299086371051814" lon="10.492444448257633"><ele>3.0</ele><time>2026-04-05T05:56:14.999Z</time></trkpt><trkpt lat="43.299145011673275" lon="10.492377416405105"><ele>3.0</ele><time>2026-04-05T05:56:19.999Z</time></trkpt><trkpt lat="43.29919631792556" lon="10.492309687423566"><ele>3.0</ele><time>2026-04-05T05:56:24.999Z</time></trkpt><trkpt lat="43.299247412405215" lon="10.49224033782823"><ele>2.9999999999999996</ele><time>2026-04-05T05:56:29.999Z</time></trkpt><trkpt lat="43.29929317787372" lon="10.49216387805562"><ele>3.0</ele><time>2026-04-05T05:56:34.999Z</time></trkpt><trkpt lat="43.299332820881865" lon="10.49209330970586"><ele>2.714285714285714</ele><time>2026-04-05T05:56:38.999Z</time></trkpt><trkpt lat="43.29937741464788" lon="10.492032172326658"><ele>2.4285714285714284</ele><time>2026-04-05T05:56:42.999Z</time></trkpt><trkpt lat="43.29941873439745" lon="10.491960069796669"><ele>2.142857142857143</ele><time>2026-04-05T05:56:47Z</time></trkpt><trkpt lat="43.29947466824398" lon="10.49191613621554"><ele>1.857142857142857</ele><time>2026-04-05T05:56:51Z</time></trkpt><trkpt lat="43.2995342041334" lon="10.49186028472205"><ele>1.5714285714285712</ele><time>2026-04-05T05:56:56Z</time></trkpt><trkpt lat="43.2995821510935" lon="10.491788351109259"><ele>1.2857142857142856</ele><time>2026-04-05T05:57:01Z</time></trkpt><trkpt lat="43.29963510346096" lon="10.491733615284234"><ele>1.0</ele><time>2026-04-05T05:57:05Z</time></trkpt><trkpt lat="43.29968303634603" lon="10.491664720365232"><ele>1.0</ele><time>2026-04-05T05:57:10Z</time></trkpt><trkpt lat="43.299731510563234" lon="10.49159855544023"><ele>0.9999999999999999</ele><time>2026-04-05T05:57:16Z</time></trkpt><trkpt lat="43.29979104214398" lon="10.491530212787486"><ele>1.0</ele><time>2026-04-05T05:57:21Z</time></trkpt><trkpt lat="43.29984109882872" lon="10.491473706557212"><ele>1.0</ele><time>2026-04-05T05:57:25Z</time></trkpt><trkpt lat="43.29989775434167" lon="10.491406039050942"><ele>0.9999999999999999</ele><time>2026-04-05T05:57:30Z</time></trkpt><trkpt lat="43.299952062728316" lon="10.491347791263301"><ele>1.0</ele><time>2026-04-05T05:57:35Z</time></trkpt><trkpt lat="43.30001162345232" lon="10.491276031066684"><ele>1.0</ele><time>2026-04-05T05:57:40.001Z</time></trkpt><trkpt lat="43.300056217630775" lon="10.491211803394158"><ele>1.1428571428571428</ele><time>2026-04-05T05:57:44Z</time></trkpt><trkpt lat="43.30011896962795" lon="10.491139317481437"><ele>1.2857142857142856</ele><time>2026-04-05T05:57:49Z</time></trkpt><trkpt lat="43.300162998835695" lon="10.491076311628301"><ele>1.4285714285714284</ele><time>2026-04-05T05:57:53Z</time></trkpt><trkpt lat="43.300232363592826" lon="10.491058694936218"><ele>1.5714285714285714</ele><time>2026-04-05T05:57:58Z</time></trkpt><trkpt lat="43.30029988148216" lon="10.491110851964367"><ele>1.714285714285714</ele><time>2026-04-05T05:58:03Z</time></trkpt><trkpt lat="43.30036516360651" lon="10.491160166451346"><ele>1.857142857142857</ele><time>2026-04-05T05:58:08Z</time></trkpt><trkpt lat="43.30041964476452" lon="10.491216499364022"><ele>2.0</ele><time>2026-04-05T05:58:13Z</time></trkpt><trkpt lat="43.300481058498676" lon="10.491238597413599"><ele>2.0</ele><time>2026-04-05T05:58:17Z</time></trkpt><trkpt lat="43.30055098221813" lon="10.49122190904894"><ele>1.9999999999999998</ele><time>2026-04-05T05:58:22Z</time></trkpt><trkpt lat="43.300623731357376" lon="10.491217935462963"><ele>2.0</ele><time>2026-04-05T05:58:27Z</time></trkpt><trkpt lat="43.30068549454143" lon="10.49124779131418"><ele>2.0</ele><time>2026-04-05T05:58:31Z</time></trkpt><trkpt lat="43.30076288779129" lon="10.491256619877966"><ele>1.9999999999999998</ele><time>2026-04-05T05:58:36Z</time></trkpt><trkpt lat="43.30082865274912" lon="10.491226282988935"><ele>2.0</ele><time>2026-04-05T05:58:41Z</time></trkpt><trkpt lat="43.30089128042822" lon="10.491189036294776"><ele>2.0</ele><time>2026-04-05T05:58:46Z</time></trkpt><trkpt lat="43.30095110502713" lon="10.491155462559847"><ele>2.142857142857143</ele><time>2026-04-05T05:58:50Z</time></trkpt><trkpt lat="43.301016071812164" lon="10.491138129113097"><ele>2.2857142857142856</ele><time>2026-04-05T05:58:54Z</time></trkpt><trkpt lat="43.30106360644272" lon="10.49121300628639"><ele>2.4285714285714284</ele><time>2026-04-05T05:58:59Z</time></trkpt><trkpt lat="43.30111018531796" lon="10.49128983690932"><ele>2.571428571428571</ele><time>2026-04-05T05:59:04Z</time></trkpt><trkpt lat="43.301159670381764" lon="10.491373416227875"><ele>2.7142857142857144</ele><time>2026-04-05T05:59:09Z</time></trkpt><trkpt lat="43.301199403087594" lon="10.491452467590806"><ele>2.8571428571428568</ele><time>2026-04-05T05:59:14Z</time></trkpt><trkpt lat="43.301244146011896" lon="10.49153347333897"><ele>3.0</ele><time>2026-04-05T05:59:19Z</time></trkpt><trkpt lat="43.30128885121397" lon="10.49161018339787"><ele>2.9999999999999996</ele><time>2026-04-05T05:59:24Z</time></trkpt><trkpt lat="43.301334556772396" lon="10.491689065729815"><ele>3.0</ele><time>2026-04-05T05:59:29Z</time></trkpt><trkpt lat="43.30139316107526" lon="10.49176378958062"><ele>3.0</ele><time>2026-04-05T05:59:34Z</time></trkpt><trkpt lat="43.3014260314692" lon="10.491843024078108"><ele>3.0</ele><time>2026-04-05T05:59:39.001Z</time></trkpt><trkpt lat="43.301491755637166" lon="10.49188954888239"><ele>3.0</ele><time>2026-04-05T05:59:43Z</time></trkpt><trkpt lat="43.30154484263621" lon="10.491939012679039"><ele>2.9999999999999996</ele><time>2026-04-05T05:59:47Z</time></trkpt><trkpt lat="43.30161055224127" lon="10.491998207732939"><ele>3.0</ele><time>2026-04-05T05:59:52Z</time></trkpt><trkpt lat="43.30165993623495" lon="10.492076789390648"><ele>2.9999999999999996</ele><time>2026-04-05T05:59:57Z</time></trkpt><trkpt lat="43.30171096976462" lon="10.492159491735924"><ele>3.0</ele><time>2026-04-05T06:00:02Z</time></trkpt><trkpt lat="43.30173064455134" lon="10.492257486197595"><ele>3.0</ele><time>2026-04-05T06:00:07Z</time></trkpt><trkpt lat="43.301757263765516" lon="10.492339716295929"><ele>3.0</ele><time>2026-04-05T06:00:11Z</time></trkpt><trkpt lat="43.3017985406107" lon="10.492414157404134"><ele>3.0</ele><time>2026-04-05T06:00:15Z</time></trkpt><trkpt lat="43.301843192748784" lon="10.492479216914148"><ele>2.9999999999999996</ele><time>2026-04-05T06:00:19Z</time></trkpt><trkpt lat="43.30189074963028" lon="10.492557337156532"><ele>3.0</ele><time>2026-04-05T06:00:24Z</time></trkpt><trkpt lat="43.301926223936825" lon="10.492634863562715"><ele>2.9999999999999996</ele><time>2026-04-05T06:00:29Z</time></trkpt><trkpt lat="43.30195444664629" lon="10.492715048922975"><ele>3.0</ele><time>2026-04-05T06:00:34Z</time></trkpt><trkpt lat="43.30198997798036" lon="10.492809482546154"><ele>3.0</ele><time>2026-04-05T06:00:39Z</time></trkpt><trkpt lat="43.302028968626075" lon="10.49287905547127"><ele>3.0</ele><time>2026-04-05T06:00:43Z</time></trkpt><trkpt lat="43.30206760582076" lon="10.492948723659332"><ele>3.0</ele><time>2026-04-05T06:00:47Z</time></trkpt><trkpt lat="43.302110724023706" lon="10.493032509309291"><ele>2.9999999999999996</ele><time>2026-04-05T06:00:52Z</time></trkpt><trkpt lat="43.30214946330893" lon="10.493122154761844"><ele>3.0</ele><time>2026-04-05T06:00:57Z</time></trkpt><trkpt lat="43.30219178125506" lon="10.493209849550436"><ele>2.8571428571428568</ele><time>2026-04-05T06:01:02Z</time></trkpt><trkpt lat="43.3022312752943" lon="10.493298228596407"><ele>2.7142857142857144</ele><time>2026-04-05T06:01:07Z</time></trkpt><trkpt lat="43.302275926202974" lon="10.49338644071753"><ele>2.571428571428571</ele><time>2026-04-05T06:01:12Z</time></trkpt><trkpt lat="43.302316644003255" lon="10.493470202985344"><ele>2.4285714285714284</ele><time>2026-04-05T06:01:17Z</time></trkpt><trkpt lat="43.30235923821507" lon="10.493546695700182"><ele>2.2857142857142856</ele><time>2026-04-05T06:01:22Z</time></trkpt><trkpt lat="43.302399450691894" lon="10.493631795515132"><ele>2.142857142857143</ele><time>2026-04-05T06:01:27Z</time></trkpt><trkpt lat="43.30244529835676" lon="10.493715289396734"><ele>2.0</ele><time>2026-04-05T06:01:32Z</time></trkpt><trkpt lat="43.302491507838454" lon="10.493784843070914"><ele>2.0</ele><time>2026-04-05T06:01:37Z</time></trkpt><trkpt lat="43.302556949505494" lon="10.493783482466622"><ele>1.9999999999999998</ele><time>2026-04-05T06:01:41Z</time></trkpt><trkpt lat="43.30260583898249" lon="10.493847323167337"><ele>2.0</ele><time>2026-04-05T06:01:46Z</time></trkpt><trkpt lat="43.30263998196356" lon="10.493927571104429"><ele>2.0</ele><time>2026-04-05T06:01:51Z</time></trkpt><trkpt lat="43.30268147339842" lon="10.49402256869062"><ele>1.9999999999999998</ele><time>2026-04-05T06:01:57.001Z</time></trkpt><trkpt lat="43.302711002265625" lon="10.494108651601524"><ele>2.0</ele><time>2026-04-05T06:02:03.001Z</time></trkpt><trkpt lat="43.302781380117615" lon="10.494106330128364"><ele>2.0</ele><time>2026-04-05T06:02:09.001Z</time></trkpt><trkpt lat="43.3028446794679" lon="10.49415280436064"><ele>2.0</ele><time>2026-04-05T06:02:14.001Z</time></trkpt><trkpt lat="43.302907970178865" lon="10.494147535799073"><ele>1.9999999999999998</ele><time>2026-04-05T06:02:18.001Z</time></trkpt><trkpt lat="43.30296774794358" lon="10.494108330974163"><ele>2.0</ele><time>2026-04-05T06:02:22.001Z</time></trkpt><trkpt lat="43.30302496392055" lon="10.494062269591272"><ele>2.0</ele><time>2026-04-05T06:02:26.001Z</time></trkpt><trkpt lat="43.30308014191348" lon="10.494014219927077"><ele>1.9999999999999998</ele><time>2026-04-05T06:02:30.001Z</time></trkpt><trkpt lat="43.30314243874563" lon="10.493955974066342"><ele>2.0</ele><time>2026-04-05T06:02:35.001Z</time></trkpt><trkpt lat="43.30320432253762" lon="10.493907478272813"><ele>2.0</ele><time>2026-04-05T06:02:40.001Z</time></trkpt><trkpt lat="43.303263297541974" lon="10.493852816135039"><ele>2.0</ele><time>2026-04-05T06:02:45.001Z</time></trkpt><trkpt lat="43.30331141913041" lon="10.49391489118786"><ele>1.9999999999999998</ele><time>2026-04-05T06:02:52.001Z</time></trkpt><trkpt lat="43.303335435324854" lon="10.494008827120222"><ele>2.0</ele><time>2026-04-05T06:02:57.001Z</time></trkpt><trkpt lat="43.303358089195065" lon="10.494108006416795"><ele>2.0</ele><time>2026-04-05T06:03:02.001Z</time></trkpt><trkpt lat="43.30337959503438" lon="10.494211839199215"><ele>1.9999999999999998</ele><time>2026-04-05T06:03:07.001Z</time></trkpt><trkpt lat="43.30340169536983" lon="10.494311811414166"><ele>2.0</ele><time>2026-04-05T06:03:12.001Z</time></trkpt><trkpt lat="43.303423748835954" lon="10.494406786449344"><ele>2.0</ele><time>2026-04-05T06:03:17.001Z</time></trkpt><trkpt lat="43.303447664506464" lon="10.494505038282428"><ele>2.142857142857143</ele><time>2026-04-05T06:03:22.001Z</time></trkpt><trkpt lat="43.30346561990535" lon="10.494609417733331"><ele>2.2857142857142856</ele><time>2026-04-05T06:03:27.001Z</time></trkpt><trkpt lat="43.30348464372516" lon="10.494692164918623"><ele>2.4285714285714284</ele><time>2026-04-05T06:03:31.001Z</time></trkpt><trkpt lat="43.30351074374573" lon="10.4947948935746"><ele>2.571428571428571</ele><time>2026-04-05T06:03:36.001Z</time></trkpt><trkpt lat="43.303529125462084" lon="10.494879546223531"><ele>2.7142857142857144</ele><time>2026-04-05T06:03:40.001Z</time></trkpt><trkpt lat="43.30355515538092" lon="10.49498100758546"><ele>2.8571428571428568</ele><time>2026-04-05T06:03:45.001Z</time></trkpt><trkpt lat="43.303580773443194" lon="10.49507883406394"><ele>3.0</ele><time>2026-04-05T06:03:50.001Z</time></trkpt><trkpt lat="43.3036083238258" lon="10.495172171062405"><ele>3.0</ele><time>2026-04-05T06:03:55Z</time></trkpt><trkpt lat="43.303636653925174" lon="10.495267512059709"><ele>3.0</ele><time>2026-04-05T06:04:00Z</time></trkpt><trkpt lat="43.30367345315689" lon="10.495358961067819"><ele>3.0</ele><time>2026-04-05T06:04:05.001Z</time></trkpt><trkpt lat="43.30370701126088" lon="10.495455606279844"><ele>3.0</ele><time>2026-04-05T06:04:10.001Z</time></trkpt><trkpt lat="43.303744074691025" lon="10.495550051900988"><ele>3.0</ele><time>2026-04-05T06:04:15.001Z</time></trkpt><trkpt lat="43.30378589795887" lon="10.495641948240436"><ele>3.0</ele><time>2026-04-05T06:04:20.001Z</time></trkpt><trkpt lat="43.3038251279475" lon="10.495734157621085"><ele>3.1428571428571423</ele><time>2026-04-05T06:04:25.001Z</time></trkpt><trkpt lat="43.30386774889653" lon="10.495822537307562"><ele>3.2857142857142856</ele><time>2026-04-05T06:04:30.001Z</time></trkpt><trkpt lat="43.303911958311915" lon="10.495907305859234"><ele>3.4285714285714284</ele><time>2026-04-05T06:04:35.001Z</time></trkpt><trkpt lat="43.303945917183654" lon="10.495981616587843"><ele>3.571428571428571</ele><time>2026-04-05T06:04:39.001Z</time></trkpt><trkpt lat="43.30399102838018" lon="10.49606538399563"><ele>3.714285714285714</ele><time>2026-04-05T06:04:44.001Z</time></trkpt><trkpt lat="43.304031803487135" lon="10.49615222764814"><ele>3.8571428571428568</ele><time>2026-04-05T06:04:49.001Z</time></trkpt><trkpt lat="43.3040715908229" lon="10.496236541585889"><ele>4.0</ele><time>2026-04-05T06:04:54.001Z</time></trkpt><trkpt lat="43.304109394497964" lon="10.496310820351544"><ele>4.142857142857142</ele><time>2026-04-05T06:04:58.001Z</time></trkpt><trkpt lat="43.30415351613458" lon="10.496392309297363"><ele>4.285714285714286</ele><time>2026-04-05T06:05:03.001Z</time></trkpt><trkpt lat="43.30419416266146" lon="10.496466007429635"><ele>4.428571428571429</ele><time>2026-04-05T06:05:08.001Z</time></trkpt><trkpt lat="43.30424130069087" lon="10.496528065123366"><ele>4.571428571428571</ele><time>2026-04-05T06:05:12.001Z</time></trkpt><trkpt lat="43.30429780892883" lon="10.496601708471058"><ele>4.714285714285714</ele><time>2026-04-05T06:05:17Z</time></trkpt><trkpt lat="43.30434356005271" lon="10.49666153490737"><ele>4.857142857142857</ele><time>2026-04-05T06:05:21Z</time></trkpt><trkpt lat="43.30439478993809" lon="10.496728660611648"><ele>5.0</ele><time>2026-04-05T06:05:26Z</time></trkpt><trkpt lat="43.304444986020556" lon="10.49680216446663"><ele>5.0</ele><time>2026-04-05T06:05:31Z</time></trkpt><trkpt lat="43.30449401333751" lon="10.496872489681653"><ele>5.0</ele><time>2026-04-05T06:05:36Z</time></trkpt><trkpt lat="43.30454022139635" lon="10.496934236761104"><ele>5.0</ele><time>2026-04-05T06:05:40Z</time></trkpt><trkpt lat="43.30458748721086" lon="10.497005431280483"><ele>5.0</ele><time>2026-04-05T06:05:45Z</time></trkpt><trkpt lat="43.304647377061386" lon="10.49706948139931"><ele>5.0</ele><time>2026-04-05T06:05:50Z</time></trkpt><trkpt lat="43.30470149932496" lon="10.497131860711233"><ele>5.0</ele><time>2026-04-05T06:05:55Z</time></trkpt><trkpt lat="43.30475685416021" lon="10.497192358886942"><ele>5.0</ele><time>2026-04-05T06:06:00Z</time></trkpt><trkpt lat="43.30481268073177" lon="10.497251435992682"><ele>4.571428571428571</ele><time>2026-04-05T06:06:05.001Z</time></trkpt><trkpt lat="43.3048687082612" lon="10.497317684677045"><ele>4.142857142857143</ele><time>2026-04-05T06:06:10Z</time></trkpt><trkpt lat="43.304927980562454" lon="10.497373851783683"><ele>3.7142857142857144</ele><time>2026-04-05T06:06:15Z</time></trkpt><trkpt lat="43.304995307657116" lon="10.497436887030881"><ele>3.2857142857142856</ele><time>2026-04-05T06:06:20Z</time></trkpt><trkpt lat="43.30505031214214" lon="10.497490352036094"><ele>2.8571428571428568</ele><time>2026-04-05T06:06:25Z</time></trkpt><trkpt lat="43.30510322250734" lon="10.497545147379801"><ele>2.4285714285714284</ele><time>2026-04-05T06:06:29Z</time></trkpt><trkpt lat="43.305163962998535" lon="10.497587393748143"><ele>2.0</ele><time>2026-04-05T06:06:34Z</time></trkpt><trkpt lat="43.30522410525891" lon="10.497651505709529"><ele>2.0</ele><time>2026-04-05T06:06:39Z</time></trkpt><trkpt lat="43.305289768494404" lon="10.497715296026916"><ele>1.9999999999999998</ele><time>2026-04-05T06:06:44Z</time></trkpt><trkpt lat="43.30534910298366" lon="10.4977656529269"><ele>2.0</ele><time>2026-04-05T06:06:49Z</time></trkpt><trkpt lat="43.30540903088288" lon="10.497819852332489"><ele>2.0</ele><time>2026-04-05T06:06:54Z</time></trkpt><trkpt lat="43.30547139374804" lon="10.497876588918041"><ele>1.9999999999999998</ele><time>2026-04-05T06:06:59Z</time></trkpt><trkpt lat="43.30553572296011" lon="10.49793046148244"><ele>2.0</ele><time>2026-04-05T06:07:04Z</time></trkpt><trkpt lat="43.305599331774175" lon="10.497986972440591"><ele>2.0</ele><time>2026-04-05T06:07:09Z</time></trkpt><trkpt lat="43.305660497087125" lon="10.498042699323442"><ele>2.142857142857143</ele><time>2026-04-05T06:07:14Z</time></trkpt><trkpt lat="43.305723707465475" lon="10.498093955179508"><ele>2.2857142857142856</ele><time>2026-04-05T06:07:19Z</time></trkpt><trkpt lat="43.30578803713874" lon="10.498147705049982"><ele>2.4285714285714284</ele><time>2026-04-05T06:07:24Z</time></trkpt><trkpt lat="43.305840424290494" lon="10.498203079379422"><ele>2.571428571428571</ele><time>2026-04-05T06:07:29Z</time></trkpt><trkpt lat="43.30590266185797" lon="10.49825168099656"><ele>2.7142857142857144</ele><time>2026-04-05T06:07:34Z</time></trkpt><trkpt lat="43.305967423730436" lon="10.498307132082086"><ele>2.8571428571428568</ele><time>2026-04-05T06:07:39Z</time></trkpt><trkpt lat="43.306031714743035" lon="10.498360091938775"><ele>3.0</ele><time>2026-04-05T06:07:44Z</time></trkpt><trkpt lat="43.30609735731463" lon="10.49841641130335"><ele>2.9999999999999996</ele><time>2026-04-05T06:07:49Z</time></trkpt><trkpt lat="43.306158184205074" lon="10.498467261392296"><ele>3.0</ele><time>2026-04-05T06:07:54Z</time></trkpt><trkpt lat="43.30621699767198" lon="10.498518534256345"><ele>3.0</ele><time>2026-04-05T06:07:59Z</time></trkpt><trkpt lat="43.30628021593861" lon="10.498582964153288"><ele>3.0</ele><time>2026-04-05T06:08:04Z</time></trkpt><trkpt lat="43.306346362636056" lon="10.49862965598728"><ele>3.0</ele><time>2026-04-05T06:08:09Z</time></trkpt><trkpt lat="43.30640800440051" lon="10.49868740610166"><ele>2.9999999999999996</ele><time>2026-04-05T06:08:14.001Z</time></trkpt><trkpt lat="43.306466683569035" lon="10.498734842891103"><ele>3.0</ele><time>2026-04-05T06:08:19Z</time></trkpt><trkpt lat="43.30653022675974" lon="10.498789681494914"><ele>2.714285714285714</ele><time>2026-04-05T06:08:24Z</time></trkpt><trkpt lat="43.30659014714178" lon="10.498842109340377"><ele>2.4285714285714284</ele><time>2026-04-05T06:08:29Z</time></trkpt><trkpt lat="43.30665278779454" lon="10.498895994319538"><ele>2.142857142857143</ele><time>2026-04-05T06:08:34Z</time></trkpt><trkpt lat="43.30671952912255" lon="10.498953868490597"><ele>1.857142857142857</ele><time>2026-04-05T06:08:39Z</time></trkpt><trkpt lat="43.30677904812684" lon="10.499004688299946"><ele>1.5714285714285712</ele><time>2026-04-05T06:08:44Z</time></trkpt><trkpt lat="43.3068365191251" lon="10.499057006605574"><ele>1.2857142857142856</ele><time>2026-04-05T06:08:49Z</time></trkpt><trkpt lat="43.30689981226651" lon="10.499111591987475"><ele>1.0</ele><time>2026-04-05T06:08:54Z</time></trkpt><trkpt lat="43.30695071646057" lon="10.499167887719299"><ele>1.0</ele><time>2026-04-05T06:08:59Z</time></trkpt><trkpt lat="43.30700565900612" lon="10.499220344077402"><ele>0.9999999999999999</ele><time>2026-04-05T06:09:04Z</time></trkpt><trkpt lat="43.30706788914714" lon="10.499277876150485"><ele>1.0</ele><time>2026-04-05T06:09:09Z</time></trkpt><trkpt lat="43.30712235709341" lon="10.49932586980526"><ele>1.0</ele><time>2026-04-05T06:09:13Z</time></trkpt><trkpt lat="43.30718342603962" lon="10.499382524950592"><ele>0.9999999999999999</ele><time>2026-04-05T06:09:18Z</time></trkpt><trkpt lat="43.30723833230324" lon="10.499430324570458"><ele>1.0</ele><time>2026-04-05T06:09:22Z</time></trkpt><trkpt lat="43.307303732851494" lon="10.499480733449818"><ele>1.0</ele><time>2026-04-05T06:09:27Z</time></trkpt><trkpt lat="43.30736858899486" lon="10.499531544950488"><ele>1.0</ele><time>2026-04-05T06:09:32Z</time></trkpt><trkpt lat="43.307430575389446" lon="10.499582303422823"><ele>0.9999999999999999</ele><time>2026-04-05T06:09:37Z</time></trkpt><trkpt lat="43.30749348503562" lon="10.49963862306867"><ele>1.0</ele><time>2026-04-05T06:09:42Z</time></trkpt><trkpt lat="43.307555409568465" lon="10.499695309747342"><ele>1.0</ele><time>2026-04-05T06:09:47Z</time></trkpt><trkpt lat="43.3076240988597" lon="10.499752491238421"><ele>0.9999999999999999</ele><time>2026-04-05T06:09:52Z</time></trkpt><trkpt lat="43.307689671178494" lon="10.49980525380254"><ele>1.0</ele><time>2026-04-05T06:09:57Z</time></trkpt><trkpt lat="43.30774839733888" lon="10.499860924343011"><ele>1.0</ele><time>2026-04-05T06:10:02Z</time></trkpt><trkpt lat="43.30780819703249" lon="10.499911906870896"><ele>1.0</ele><time>2026-04-05T06:10:07Z</time></trkpt><trkpt lat="43.30786388281403" lon="10.499963346945666"><ele>0.9999999999999999</ele><time>2026-04-05T06:10:12Z</time></trkpt><trkpt lat="43.30792509353551" lon="10.500015023292724"><ele>1.0</ele><time>2026-04-05T06:10:17.001Z</time></trkpt><trkpt lat="43.307987093718616" lon="10.500074749993619"><ele>1.0</ele><time>2026-04-05T06:10:22.001Z</time></trkpt><trkpt lat="43.308045065090255" lon="10.500120470237256"><ele>0.9999999999999999</ele><time>2026-04-05T06:10:26.001Z</time></trkpt><trkpt lat="43.308101032088665" lon="10.500164162896473"><ele>1.0</ele><time>2026-04-05T06:10:30.001Z</time></trkpt><trkpt lat="43.30815631577842" lon="10.500208945728225"><ele>1.0</ele><time>2026-04-05T06:10:34.001Z</time></trkpt><trkpt lat="43.30821411080134" lon="10.500245729803988"><ele>1.0</ele><time>2026-04-05T06:10:38.001Z</time></trkpt><trkpt lat="43.30828519402832" lon="10.500293482452996"><ele>0.9999999999999999</ele><time>2026-04-05T06:10:43.001Z</time></trkpt><trkpt lat="43.3083497072542" lon="10.500345112006627"><ele>1.0</ele><time>2026-04-05T06:10:48.001Z</time></trkpt><trkpt lat="43.30841757037863" lon="10.500394746260147"><ele>1.0</ele><time>2026-04-05T06:10:53.001Z</time></trkpt><trkpt lat="43.308482711011045" lon="10.500441262643937"><ele>0.9999999999999999</ele><time>2026-04-05T06:10:58.001Z</time></trkpt><trkpt lat="43.30854445998453" lon="10.500490607983137"><ele>1.0</ele><time>2026-04-05T06:11:03.001Z</time></trkpt><trkpt lat="43.308610856867524" lon="10.500534246755262"><ele>1.0</ele><time>2026-04-05T06:11:08.001Z</time></trkpt><trkpt lat="43.308677754037724" lon="10.500575569620427"><ele>1.0</ele><time>2026-04-05T06:11:13.001Z</time></trkpt><trkpt lat="43.30874415574793" lon="10.500617807840742"><ele>0.9999999999999999</ele><time>2026-04-05T06:11:18.001Z</time></trkpt><trkpt lat="43.30881600092774" lon="10.500652396358822"><ele>1.0</ele><time>2026-04-05T06:11:23.001Z</time></trkpt><trkpt lat="43.30888124035" lon="10.500697430028774"><ele>1.0</ele><time>2026-04-05T06:11:28.001Z</time></trkpt><trkpt lat="43.30895027411408" lon="10.500734718473835"><ele>0.9999999999999999</ele><time>2026-04-05T06:11:33.001Z</time></trkpt><trkpt lat="43.30901881862135" lon="10.500774078030519"><ele>1.0</ele><time>2026-04-05T06:11:38.001Z</time></trkpt><trkpt lat="43.309086762444124" lon="10.50081413295216"><ele>1.0</ele><time>2026-04-05T06:11:43.001Z</time></trkpt><trkpt lat="43.30915376584412" lon="10.500850529044898"><ele>1.0</ele><time>2026-04-05T06:11:48.001Z</time></trkpt><trkpt lat="43.30921651308557" lon="10.500891163758121"><ele>0.9999999999999999</ele><time>2026-04-05T06:11:53.001Z</time></trkpt><trkpt lat="43.30927598427077" lon="10.500924271217503"><ele>1.0</ele><time>2026-04-05T06:11:57.001Z</time></trkpt><trkpt lat="43.30934252492461" lon="10.500961226751416"><ele>1.0</ele><time>2026-04-05T06:12:02.001Z</time></trkpt><trkpt lat="43.30941452020909" lon="10.500995735921972"><ele>0.9999999999999999</ele><time>2026-04-05T06:12:07.001Z</time></trkpt><trkpt lat="43.30948686104125" lon="10.50103792160027"><ele>1.0</ele><time>2026-04-05T06:12:12.001Z</time></trkpt><trkpt lat="43.3095539613192" lon="10.501078361864787"><ele>1.0</ele><time>2026-04-05T06:12:17Z</time></trkpt><trkpt lat="43.309612558513855" lon="10.501110253539077"><ele>1.0</ele><time>2026-04-05T06:12:21.001Z</time></trkpt><trkpt lat="43.30967668313908" lon="10.501145944967154"><ele>0.9999999999999999</ele><time>2026-04-05T06:12:26Z</time></trkpt><trkpt lat="43.309746322639825" lon="10.501179067430437"><ele>1.0</ele><time>2026-04-05T06:12:31Z</time></trkpt><trkpt lat="43.30981660708189" lon="10.501219516705275"><ele>1.0</ele><time>2026-04-05T06:12:36Z</time></trkpt><trkpt lat="43.309884353496656" lon="10.501255995960868"><ele>0.9999999999999999</ele><time>2026-04-05T06:12:41Z</time></trkpt><trkpt lat="43.3099562605138" lon="10.501291393078628"><ele>1.0</ele><time>2026-04-05T06:12:46Z</time></trkpt><trkpt lat="43.31002348233196" lon="10.501330849187278"><ele>1.0</ele><time>2026-04-05T06:12:51Z</time></trkpt><trkpt lat="43.31008528111029" lon="10.501370487868249"><ele>1.0</ele><time>2026-04-05T06:12:56Z</time></trkpt><trkpt lat="43.310145692434425" lon="10.501406048965102"><ele>0.9999999999999999</ele><time>2026-04-05T06:13:01Z</time></trkpt><trkpt lat="43.31020524402278" lon="10.501438920168898"><ele>1.0</ele><time>2026-04-05T06:13:05Z</time></trkpt><trkpt lat="43.31027290784226" lon="10.50147988339315"><ele>1.0</ele><time>2026-04-05T06:13:10Z</time></trkpt><trkpt lat="43.3103447949035" lon="10.50151201361887"><ele>0.9999999999999999</ele><time>2026-04-05T06:13:15Z</time></trkpt><trkpt lat="43.3104157464917" lon="10.501550767260259"><ele>1.0</ele><time>2026-04-05T06:13:20Z</time></trkpt><trkpt lat="43.31048891569698" lon="10.501580445841533"><ele>1.0</ele><time>2026-04-05T06:13:25Z</time></trkpt><trkpt lat="43.310562080256" lon="10.501626574597227"><ele>1.1428571428571428</ele><time>2026-04-05T06:13:30Z</time></trkpt><trkpt lat="43.31062110868143" lon="10.501658199242444"><ele>1.2857142857142856</ele><time>2026-04-05T06:13:35Z</time></trkpt><trkpt lat="43.31069378328463" lon="10.50169544776067"><ele>1.4285714285714284</ele><time>2026-04-05T06:13:40Z</time></trkpt><trkpt lat="43.31075727440906" lon="10.50173320390314"><ele>1.5714285714285714</ele><time>2026-04-05T06:13:45Z</time></trkpt><trkpt lat="43.31081891122585" lon="10.501768720253326"><ele>1.714285714285714</ele><time>2026-04-05T06:13:50Z</time></trkpt><trkpt lat="43.310887818727515" lon="10.5018078990478"><ele>1.857142857142857</ele><time>2026-04-05T06:13:55Z</time></trkpt><trkpt lat="43.31095234964109" lon="10.501844346850408"><ele>2.0</ele><time>2026-04-05T06:14:00Z</time></trkpt><trkpt lat="43.31101105263442" lon="10.501879020440954"><ele>2.0</ele><time>2026-04-05T06:14:04Z</time></trkpt><trkpt lat="43.31107600547569" lon="10.501923335855281"><ele>1.9999999999999998</ele><time>2026-04-05T06:14:09Z</time></trkpt><trkpt lat="43.3111399027322" lon="10.501970014985893"><ele>2.0</ele><time>2026-04-05T06:14:14Z</time></trkpt><trkpt lat="43.311203916537174" lon="10.502013895656042"><ele>2.0</ele><time>2026-04-05T06:14:19Z</time></trkpt><trkpt lat="43.311268920722775" lon="10.502062004679063"><ele>1.9999999999999998</ele><time>2026-04-05T06:14:24Z</time></trkpt><trkpt lat="43.31132955979881" lon="10.502117845502069"><ele>2.0</ele><time>2026-04-05T06:14:29Z</time></trkpt><trkpt lat="43.31139257043726" lon="10.502175016866802"><ele>2.0</ele><time>2026-04-05T06:14:34.001Z</time></trkpt><trkpt lat="43.311451046918606" lon="10.502233796030923"><ele>2.0</ele><time>2026-04-05T06:14:39.001Z</time></trkpt><trkpt lat="43.31150953967596" lon="10.502307802099507"><ele>1.9999999999999998</ele><time>2026-04-05T06:14:44.001Z</time></trkpt><trkpt lat="43.31155851455403" lon="10.502377546221974"><ele>2.0</ele><time>2026-04-05T06:14:49.001Z</time></trkpt><trkpt lat="43.3116118119858" lon="10.502450540402698"><ele>2.0</ele><time>2026-04-05T06:14:54.001Z</time></trkpt><trkpt lat="43.31166047466799" lon="10.502521461592224"><ele>1.9999999999999998</ele><time>2026-04-05T06:14:59.001Z</time></trkpt><trkpt lat="43.31170824089898" lon="10.502595619266827"><ele>2.0</ele><time>2026-04-05T06:15:04.001Z</time></trkpt><trkpt lat="43.31175492360389" lon="10.502677540418285"><ele>2.0</ele><time>2026-04-05T06:15:09.001Z</time></trkpt><trkpt lat="43.31180162608255" lon="10.502764903813787"><ele>2.0</ele><time>2026-04-05T06:15:14.001Z</time></trkpt><trkpt lat="43.311842810008926" lon="10.502848849567927"><ele>1.9999999999999998</ele><time>2026-04-05T06:15:19.001Z</time></trkpt><trkpt lat="43.31187383714287" lon="10.502924526211602"><ele>2.0</ele><time>2026-04-05T06:15:23.001Z</time></trkpt><trkpt lat="43.31191138415505" lon="10.50302497452214"><ele>2.0</ele><time>2026-04-05T06:15:28.001Z</time></trkpt><trkpt lat="43.31194880130974" lon="10.503114581898835"><ele>1.9999999999999998</ele><time>2026-04-05T06:15:33.001Z</time></trkpt><trkpt lat="43.31198380047198" lon="10.503213991472494"><ele>2.0</ele><time>2026-04-05T06:15:38.001Z</time></trkpt><trkpt lat="43.31201966427324" lon="10.503298148907403"><ele>2.0</ele><time>2026-04-05T06:15:43.001Z</time></trkpt><trkpt lat="43.31205382923067" lon="10.503392003167646"><ele>2.0</ele><time>2026-04-05T06:15:48.001Z</time></trkpt><trkpt lat="43.31209284351858" lon="10.50349425240147"><ele>1.9999999999999998</ele><time>2026-04-05T06:15:53.001Z</time></trkpt><trkpt lat="43.31212169269089" lon="10.503581589207498"><ele>2.0</ele><time>2026-04-05T06:15:58.001Z</time></trkpt><trkpt lat="43.312151443943335" lon="10.50367299466804"><ele>2.0</ele><time>2026-04-05T06:16:03.001Z</time></trkpt><trkpt lat="43.31218692711104" lon="10.503763029425555"><ele>1.9999999999999998</ele><time>2026-04-05T06:16:08.001Z</time></trkpt><trkpt lat="43.312216327403185" lon="10.503855650818467"><ele>2.0</ele><time>2026-04-05T06:16:13.001Z</time></trkpt><trkpt lat="43.31224868820779" lon="10.50394156555776"><ele>2.0</ele><time>2026-04-05T06:16:18.001Z</time></trkpt><trkpt lat="43.312280945772876" lon="10.504036143363022"><ele>2.142857142857143</ele><time>2026-04-05T06:16:23.001Z</time></trkpt><trkpt lat="43.31231220469735" lon="10.504123465715935"><ele>2.2857142857142856</ele><time>2026-04-05T06:16:28Z</time></trkpt><trkpt lat="43.312341675662154" lon="10.50421569182022"><ele>2.4285714285714284</ele><time>2026-04-05T06:16:33.001Z</time></trkpt><trkpt lat="43.31237006219561" lon="10.504301263386372"><ele>2.571428571428571</ele><time>2026-04-05T06:16:38Z</time></trkpt><trkpt lat="43.31240537522204" lon="10.5043936088191"><ele>2.7142857142857144</ele><time>2026-04-05T06:16:43Z</time></trkpt><trkpt lat="43.312439603771274" lon="10.504488422479993"><ele>2.8571428571428568</ele><time>2026-04-05T06:16:48Z</time></trkpt><trkpt lat="43.31247162049574" lon="10.50458593181014"><ele>3.0</ele><time>2026-04-05T06:16:53Z</time></trkpt><trkpt lat="43.31250534623566" lon="10.504678051444204"><ele>2.9999999999999996</ele><time>2026-04-05T06:16:58Z</time></trkpt><trkpt lat="43.31253761759262" lon="10.504770246809889"><ele>3.0</ele><time>2026-04-05T06:17:03Z</time></trkpt><trkpt lat="43.312559610161806" lon="10.504867492025552"><ele>3.0</ele><time>2026-04-05T06:17:08Z</time></trkpt><trkpt lat="43.31258444490253" lon="10.504955995239062"><ele>3.0</ele><time>2026-04-05T06:17:13Z</time></trkpt><trkpt lat="43.31261214036009" lon="10.505052860227934"><ele>3.0</ele><time>2026-04-05T06:17:18Z</time></trkpt><trkpt lat="43.312636243315914" lon="10.50514435898013"><ele>2.9999999999999996</ele><time>2026-04-05T06:17:23Z</time></trkpt><trkpt lat="43.312653165374265" lon="10.505245151619379"><ele>3.0</ele><time>2026-04-05T06:17:28Z</time></trkpt><trkpt lat="43.31267197092928" lon="10.505342102578677"><ele>2.8571428571428568</ele><time>2026-04-05T06:17:33Z</time></trkpt><trkpt lat="43.312679360981775" lon="10.505442282546023"><ele>2.7142857142857144</ele><time>2026-04-05T06:17:38Z</time></trkpt><trkpt lat="43.31268611863241" lon="10.505547645493"><ele>2.571428571428571</ele><time>2026-04-05T06:17:43Z</time></trkpt><trkpt lat="43.31269447294141" lon="10.505646054281229"><ele>2.4285714285714284</ele><time>2026-04-05T06:17:48Z</time></trkpt><trkpt lat="43.31269868930428" lon="10.505746486069635"><ele>2.2857142857142856</ele><time>2026-04-05T06:17:53Z</time></trkpt><trkpt lat="43.312703739129496" lon="10.505845074553319"><ele>2.142857142857143</ele><time>2026-04-05T06:17:58Z</time></trkpt><trkpt lat="43.31270478424536" lon="10.505944211776592"><ele>2.0</ele><time>2026-04-05T06:18:03Z</time></trkpt><trkpt lat="43.31270677511352" lon="10.506048024876389"><ele>2.0</ele><time>2026-04-05T06:18:08Z</time></trkpt><trkpt lat="43.31270500186828" lon="10.50614971737786"><ele>1.9999999999999998</ele><time>2026-04-05T06:18:13Z</time></trkpt><trkpt lat="43.31270250503424" lon="10.506260810427252"><ele>2.0</ele><time>2026-04-05T06:18:18Z</time></trkpt><trkpt lat="43.3127009985093" lon="10.506357292661626"><ele>2.0</ele><time>2026-04-05T06:18:23Z</time></trkpt><trkpt lat="43.31270114861861" lon="10.506453922458103"><ele>1.9999999999999998</ele><time>2026-04-05T06:18:28Z</time></trkpt><trkpt lat="43.312699825187565" lon="10.506557321543886"><ele>2.0</ele><time>2026-04-05T06:18:33Z</time></trkpt><trkpt lat="43.312700406593684" lon="10.506664174995851"><ele>2.0</ele><time>2026-04-05T06:18:38Z</time></trkpt><trkpt lat="43.312700075863305" lon="10.506768451695518"><ele>2.0</ele><time>2026-04-05T06:18:43Z</time></trkpt><trkpt lat="43.31269802310548" lon="10.506862018118"><ele>1.9999999999999998</ele><time>2026-04-05T06:18:48Z</time></trkpt><trkpt lat="43.31270174415175" lon="10.506964465848824"><ele>2.0</ele><time>2026-04-05T06:18:53Z</time></trkpt><trkpt lat="43.31270335286807" lon="10.50706733570317"><ele>2.0</ele><time>2026-04-05T06:18:58Z</time></trkpt><trkpt lat="43.31270518628127" lon="10.50715966325711"><ele>1.9999999999999998</ele><time>2026-04-05T06:19:02.999Z</time></trkpt><trkpt lat="43.31270562185102" lon="10.507256136630755"><ele>2.0</ele><time>2026-04-05T06:19:07.998Z</time></trkpt><trkpt lat="43.312702894259004" lon="10.507353478956771"><ele>2.0</ele><time>2026-04-05T06:19:12.997Z</time></trkpt><trkpt lat="43.31270899452854" lon="10.507456157836707"><ele>2.0</ele><time>2026-04-05T06:19:17.997Z</time></trkpt><trkpt lat="43.31271387959445" lon="10.507562296993697"><ele>1.9999999999999998</ele><time>2026-04-05T06:19:22.996Z</time></trkpt><trkpt lat="43.31271915499711" lon="10.507668777915587"><ele>2.0</ele><time>2026-04-05T06:19:27.996Z</time></trkpt><trkpt lat="43.31271372219135" lon="10.507759512003515"><ele>2.0</ele><time>2026-04-05T06:19:32.996Z</time></trkpt><trkpt lat="43.31271426534701" lon="10.507846419749416"><ele>1.9999999999999998</ele><time>2026-04-05T06:19:36.995Z</time></trkpt><trkpt lat="43.31271844650203" lon="10.50794745523325"><ele>2.0</ele><time>2026-04-05T06:19:41.995Z</time></trkpt><trkpt lat="43.31272665515323" lon="10.508042770313033"><ele>2.0</ele><time>2026-04-05T06:19:46.995Z</time></trkpt><trkpt lat="43.31273071687663" lon="10.508141394264383"><ele>2.142857142857143</ele><time>2026-04-05T06:19:51.995Z</time></trkpt><trkpt lat="43.3127426646162" lon="10.508242422436329"><ele>2.2857142857142856</ele><time>2026-04-05T06:19:56.995Z</time></trkpt><trkpt lat="43.31275768066547" lon="10.508332532275762"><ele>2.4285714285714284</ele><time>2026-04-05T06:20:00.995Z</time></trkpt><trkpt lat="43.31276787257884" lon="10.50842032714366"><ele>2.571428571428571</ele><time>2026-04-05T06:20:04.995Z</time></trkpt><trkpt lat="43.31278534237318" lon="10.508519530688908"><ele>2.7142857142857144</ele><time>2026-04-05T06:20:09.995Z</time></trkpt><trkpt lat="43.3127971177589" lon="10.508619868779977"><ele>2.8571428571428568</ele><time>2026-04-05T06:20:14.995Z</time></trkpt><trkpt lat="43.31281502118319" lon="10.508723691166761"><ele>3.0</ele><time>2026-04-05T06:20:19.995Z</time></trkpt><trkpt lat="43.31283802958037" lon="10.508823155045182"><ele>3.1428571428571423</ele><time>2026-04-05T06:20:24.995Z</time></trkpt><trkpt lat="43.312852459827496" lon="10.50892756078418"><ele>3.2857142857142856</ele><time>2026-04-05T06:20:29.995Z</time></trkpt><trkpt lat="43.31286600760579" lon="10.509020117841592"><ele>3.4285714285714284</ele><time>2026-04-05T06:20:34.995Z</time></trkpt><trkpt lat="43.31288595345147" lon="10.509123285864893"><ele>3.571428571428571</ele><time>2026-04-05T06:20:39.995Z</time></trkpt><trkpt lat="43.3129072314206" lon="10.509206475960868"><ele>3.714285714285714</ele><time>2026-04-05T06:20:43.997Z</time></trkpt><trkpt lat="43.3129223978571" lon="10.50929213930765"><ele>3.8571428571428568</ele><time>2026-04-05T06:20:47.997Z</time></trkpt><trkpt lat="43.31293310720217" lon="10.509397065777158"><ele>4.0</ele><time>2026-04-05T06:20:52.998Z</time></trkpt><trkpt lat="43.31296106931871" lon="10.509478634714013"><ele>3.8571428571428568</ele><time>2026-04-05T06:20:56.999Z</time></trkpt><trkpt lat="43.31298154036792" lon="10.509579921649328"><ele>3.714285714285714</ele><time>2026-04-05T06:21:01.999Z</time></trkpt><trkpt lat="43.312996781873714" lon="10.509663989961265"><ele>3.571428571428571</ele><time>2026-04-05T06:21:05.999Z</time></trkpt><trkpt lat="43.31301779595873" lon="10.509760929610815"><ele>3.4285714285714284</ele><time>2026-04-05T06:21:10.999Z</time></trkpt><trkpt lat="43.31303417584015" lon="10.50986107804733"><ele>3.2857142857142856</ele><time>2026-04-05T06:21:16Z</time></trkpt><trkpt lat="43.31305502356943" lon="10.509957411011936"><ele>3.1428571428571423</ele><time>2026-04-05T06:21:21Z</time></trkpt><trkpt lat="43.31307474115042" lon="10.510057180633565"><ele>3.0</ele><time>2026-04-05T06:21:26Z</time></trkpt><trkpt lat="43.31309088125996" lon="10.51015951374484"><ele>2.9999999999999996</ele><time>2026-04-05T06:21:31Z</time></trkpt><trkpt lat="43.313112786482456" lon="10.510255354796167"><ele>3.0</ele><time>2026-04-05T06:21:36Z</time></trkpt><trkpt lat="43.31313092522541" lon="10.510355577635984"><ele>3.0</ele><time>2026-04-05T06:21:41Z</time></trkpt><trkpt lat="43.3131448675546" lon="10.510457072828858"><ele>3.0</ele><time>2026-04-05T06:21:46Z</time></trkpt><trkpt lat="43.31315538881009" lon="10.510548555436756"><ele>3.0</ele><time>2026-04-05T06:21:51Z</time></trkpt><trkpt lat="43.31317982361464" lon="10.510643997279967"><ele>2.9999999999999996</ele><time>2026-04-05T06:21:56Z</time></trkpt><trkpt lat="43.3132048906838" lon="10.510741478889624"><ele>3.0</ele><time>2026-04-05T06:22:01Z</time></trkpt><trkpt lat="43.313228629973814" lon="10.510838416088017"><ele>2.9999999999999996</ele><time>2026-04-05T06:22:06Z</time></trkpt><trkpt lat="43.31324974819562" lon="10.51092782853016"><ele>3.0</ele><time>2026-04-05T06:22:11Z</time></trkpt><trkpt lat="43.31330730013974" lon="10.510978342465926"><ele>3.0</ele><time>2026-04-05T06:22:46Z</time></trkpt><trkpt lat="43.313385246640806" lon="10.510984087241411"><ele>3.0</ele><time>2026-04-05T06:22:51Z</time></trkpt><trkpt lat="43.313454910118686" lon="10.51101748728549"><ele>3.0</ele><time>2026-04-05T06:22:56Z</time></trkpt><trkpt lat="43.31350971552628" lon="10.511084039539941"><ele>2.9999999999999996</ele><time>2026-04-05T06:23:02Z</time></trkpt><trkpt lat="43.31353773491613" lon="10.511164887618143"><ele>3.0</ele><time>2026-04-05T06:23:06Z</time></trkpt><trkpt lat="43.31356856803999" lon="10.511249919167504"><ele>3.8571428571428568</ele><time>2026-04-05T06:23:11Z</time></trkpt><trkpt lat="43.313603900878256" lon="10.511338278211088"><ele>4.714285714285714</ele><time>2026-04-05T06:23:16Z</time></trkpt><trkpt lat="43.31363385957142" lon="10.511428590934216"><ele>5.571428571428572</ele><time>2026-04-05T06:23:21Z</time></trkpt><trkpt lat="43.31366960900693" lon="10.511522243487773"><ele>6.428571428571429</ele><time>2026-04-05T06:23:26Z</time></trkpt><trkpt lat="43.31369811971847" lon="10.511614247498565"><ele>7.285714285714286</ele><time>2026-04-05T06:23:31Z</time></trkpt><trkpt lat="43.31372537219778" lon="10.511704519712692"><ele>8.142857142857144</ele><time>2026-04-05T06:23:36Z</time></trkpt><trkpt lat="43.3137349925955" lon="10.511797753253981"><ele>9.0</ele><time>2026-04-05T06:23:43Z</time></trkpt><trkpt lat="43.31374240508844" lon="10.511902782075982"><ele>9.0</ele><time>2026-04-05T06:23:49Z</time></trkpt><trkpt lat="43.313730500363675" lon="10.512003932090785"><ele>9.0</ele><time>2026-04-05T06:23:54Z</time></trkpt><trkpt lat="43.31381739319095" lon="10.512063869203317"><ele>9.0</ele><time>2026-04-05T06:23:58Z</time></trkpt><trkpt lat="43.313853363034646" lon="10.512141360877694"><ele>9.0</ele><time>2026-04-05T06:24:01Z</time></trkpt><trkpt lat="43.31386823938239" lon="10.512236605441736"><ele>9.0</ele><time>2026-04-05T06:24:05Z</time></trkpt><trkpt lat="43.31387529982255" lon="10.512334705498505"><ele>9.0</ele><time>2026-04-05T06:24:09Z</time></trkpt><trkpt lat="43.31389124456039" lon="10.51242774579377"><ele>9.142857142857144</ele><time>2026-04-05T06:24:13Z</time></trkpt><trkpt lat="43.313899483597794" lon="10.51251656658377"><ele>9.285714285714286</ele><time>2026-04-05T06:24:18Z</time></trkpt><trkpt lat="43.31389933478038" lon="10.512618784841965"><ele>9.428571428571429</ele><time>2026-04-05T06:24:23Z</time></trkpt><trkpt lat="43.31387286314199" lon="10.512718721243022"><ele>9.571428571428573</ele><time>2026-04-05T06:24:28Z</time></trkpt><trkpt lat="43.3138279840479" lon="10.512789999178525"><ele>9.714285714285715</ele><time>2026-04-05T06:24:33Z</time></trkpt><trkpt lat="43.313812950684216" lon="10.512888493597757"><ele>9.857142857142858</ele><time>2026-04-05T06:24:39Z</time></trkpt><trkpt lat="43.313847111495846" lon="10.512984785810392"><ele>10.0</ele><time>2026-04-05T06:24:44Z</time></trkpt><trkpt lat="43.313871050319804" lon="10.513076652751742"><ele>10.0</ele><time>2026-04-05T06:24:49Z</time></trkpt><trkpt lat="43.31390187520159" lon="10.51316120981721"><ele>10.0</ele><time>2026-04-05T06:24:54Z</time></trkpt><trkpt lat="43.31393364876973" lon="10.513260244453662"><ele>10.0</ele><time>2026-04-05T06:24:59Z</time></trkpt><trkpt lat="43.313961745541775" lon="10.513356664059604"><ele>10.0</ele><time>2026-04-05T06:25:05Z</time></trkpt><trkpt lat="43.313995996403065" lon="10.51344090529248"><ele>10.0</ele><time>2026-04-05T06:25:10Z</time></trkpt><trkpt lat="43.31402538499203" lon="10.513528220945874"><ele>10.0</ele><time>2026-04-05T06:25:15Z</time></trkpt><trkpt lat="43.31405750449156" lon="10.513616041546936"><ele>10.0</ele><time>2026-04-05T06:25:20Z</time></trkpt><trkpt lat="43.31401154016067" lon="10.513677091050852"><ele>9.571428571428571</ele><time>2026-04-05T06:25:24Z</time></trkpt><trkpt lat="43.31395031583757" lon="10.513717316260614"><ele>9.142857142857142</ele><time>2026-04-05T06:25:29Z</time></trkpt><trkpt lat="43.31392884497908" lon="10.513799663141542"><ele>8.714285714285715</ele><time>2026-04-05T06:25:35Z</time></trkpt><trkpt lat="43.31392104711667" lon="10.513897338859458"><ele>8.285714285714285</ele><time>2026-04-05T06:25:38Z</time></trkpt><trkpt lat="43.31392523333269" lon="10.513996478895416"><ele>7.857142857142858</ele><time>2026-04-05T06:25:42Z</time></trkpt><trkpt lat="43.31396711253481" lon="10.514083543513589"><ele>7.428571428571429</ele><time>2026-04-05T06:25:48Z</time></trkpt><trkpt lat="43.314015844305416" lon="10.51415655303048"><ele>7.0</ele><time>2026-04-05T06:25:53Z</time></trkpt><trkpt lat="43.314050215050464" lon="10.5142410015359"><ele>7.0</ele><time>2026-04-05T06:25:57Z</time></trkpt><trkpt lat="43.314087789929424" lon="10.51432381909053"><ele>7.0</ele><time>2026-04-05T06:26:02Z</time></trkpt><trkpt lat="43.31412476197119" lon="10.514399087624142"><ele>7.0</ele><time>2026-04-05T06:26:07Z</time></trkpt><trkpt lat="43.31416139493526" lon="10.514472237976086"><ele>7.0</ele><time>2026-04-05T06:26:11Z</time></trkpt><trkpt lat="43.31418708585336" lon="10.514569308402496"><ele>7.0</ele><time>2026-04-05T06:26:16Z</time></trkpt><trkpt lat="43.31421326755791" lon="10.514666876662417"><ele>7.0</ele><time>2026-04-05T06:26:21Z</time></trkpt><trkpt lat="43.31425318633294" lon="10.514760109940406"><ele>7.0</ele><time>2026-04-05T06:26:26Z</time></trkpt><trkpt lat="43.314264414332364" lon="10.514853242755088"><ele>7.285714285714286</ele><time>2026-04-05T06:26:32Z</time></trkpt><trkpt lat="43.314245207783294" lon="10.51494217554397"><ele>7.571428571428571</ele><time>2026-04-05T06:26:37Z</time></trkpt><trkpt lat="43.3141980273271" lon="10.515003264996757"><ele>7.857142857142858</ele><time>2026-04-05T06:26:44Z</time></trkpt><trkpt lat="43.314145608675375" lon="10.515072008855158"><ele>8.142857142857142</ele><time>2026-04-05T06:26:50Z</time></trkpt><trkpt lat="43.31409698293578" lon="10.51513591986484"><ele>8.428571428571429</ele><time>2026-04-05T06:26:54Z</time></trkpt><trkpt lat="43.31402988746894" lon="10.515177039862351"><ele>8.714285714285715</ele><time>2026-04-05T06:26:59Z</time></trkpt><trkpt lat="43.313980289624595" lon="10.515240721882794"><ele>9.0</ele><time>2026-04-05T06:27:03Z</time></trkpt><trkpt lat="43.313936243690556" lon="10.5153076819432"><ele>9.142857142857144</ele><time>2026-04-05T06:27:07Z</time></trkpt><trkpt lat="43.313894818543325" lon="10.51537727689275"><ele>9.285714285714286</ele><time>2026-04-05T06:27:11Z</time></trkpt><trkpt lat="43.313836507489164" lon="10.515421656618836"><ele>9.428571428571429</ele><time>2026-04-05T06:27:15Z</time></trkpt><trkpt lat="43.31376949771506" lon="10.515459920657326"><ele>9.571428571428573</ele><time>2026-04-05T06:27:19Z</time></trkpt><trkpt lat="43.31371086583896" lon="10.515509608897814"><ele>9.714285714285715</ele><time>2026-04-05T06:27:23Z</time></trkpt><trkpt lat="43.31364096735874" lon="10.515562165897926"><ele>9.857142857142858</ele><time>2026-04-05T06:27:28Z</time></trkpt><trkpt lat="43.313575185101975" lon="10.515608428703445"><ele>10.0</ele><time>2026-04-05T06:27:33Z</time></trkpt><trkpt lat="43.313508766539094" lon="10.515644288579495"><ele>10.285714285714285</ele><time>2026-04-05T06:27:39Z</time></trkpt><trkpt lat="43.313456030377104" lon="10.515691715352148"><ele>10.571428571428571</ele><time>2026-04-05T06:27:43Z</time></trkpt><trkpt lat="43.31339338408284" lon="10.515770114762349"><ele>10.857142857142858</ele><time>2026-04-05T06:27:48Z</time></trkpt><trkpt lat="43.31334080124749" lon="10.515832259859273"><ele>11.142857142857142</ele><time>2026-04-05T06:27:53Z</time></trkpt><trkpt lat="43.313286049116975" lon="10.515902151597642"><ele>11.428571428571429</ele><time>2026-04-05T06:27:58Z</time></trkpt><trkpt lat="43.31323056166088" lon="10.515968273084495"><ele>11.714285714285714</ele><time>2026-04-05T06:28:03Z</time></trkpt><trkpt lat="43.31318512938975" lon="10.516036851608382"><ele>12.0</ele><time>2026-04-05T06:28:07Z</time></trkpt><trkpt lat="43.313126006737086" lon="10.51610064884934"><ele>12.285714285714285</ele><time>2026-04-05T06:28:12Z</time></trkpt><trkpt lat="43.31305838741704" lon="10.51614361596541"><ele>12.571428571428571</ele><time>2026-04-05T06:28:17Z</time></trkpt><trkpt lat="43.312996942328994" lon="10.516164960704819"><ele>12.857142857142858</ele><time>2026-04-05T06:28:22Z</time></trkpt><trkpt lat="43.31295324243367" lon="10.516234370775164"><ele>13.142857142857142</ele><time>2026-04-05T06:28:26Z</time></trkpt><trkpt lat="43.31289239788381" lon="10.516293226948454"><ele>13.428571428571429</ele><time>2026-04-05T06:28:30Z</time></trkpt><trkpt lat="43.31282947662411" lon="10.516329111809268"><ele>13.714285714285714</ele><time>2026-04-05T06:28:34Z</time></trkpt><trkpt lat="43.312762157420224" lon="10.516367643268053"><ele>14.0</ele><time>2026-04-05T06:28:39Z</time></trkpt><trkpt lat="43.312700561254104" lon="10.516399320960637"><ele>14.0</ele><time>2026-04-05T06:28:45Z</time></trkpt><trkpt lat="43.31263367599795" lon="10.516398599353902"><ele>14.0</ele><time>2026-04-05T06:28:50Z</time></trkpt><trkpt lat="43.31258357392169" lon="10.516455140077353"><ele>14.0</ele><time>2026-04-05T06:28:56Z</time></trkpt><trkpt lat="43.31253298639409" lon="10.516513771435049"><ele>14.0</ele><time>2026-04-05T06:29:00Z</time></trkpt><trkpt lat="43.312464435892956" lon="10.516563539825945"><ele>14.0</ele><time>2026-04-05T06:29:05Z</time></trkpt><trkpt lat="43.31240714343664" lon="10.516607703173952"><ele>14.0</ele><time>2026-04-05T06:29:11Z</time></trkpt><trkpt lat="43.31233637396947" lon="10.516647119674815"><ele>14.0</ele><time>2026-04-05T06:29:16Z</time></trkpt><trkpt lat="43.31226954005823" lon="10.516715532625113"><ele>14.142857142857142</ele><time>2026-04-05T06:29:20Z</time></trkpt><trkpt lat="43.31220098796584" lon="10.516756449404243"><ele>14.285714285714285</ele><time>2026-04-05T06:29:25Z</time></trkpt><trkpt lat="43.31213448249699" lon="10.516798185411036"><ele>14.428571428571429</ele><time>2026-04-05T06:29:31Z</time></trkpt><trkpt lat="43.312092316405476" lon="10.516863758801135"><ele>14.571428571428571</ele><time>2026-04-05T06:29:36Z</time></trkpt><trkpt lat="43.31203504467952" lon="10.51693085254119"><ele>14.714285714285714</ele><time>2026-04-05T06:29:41Z</time></trkpt><trkpt lat="43.31198445404453" lon="10.516997517043212"><ele>14.857142857142858</ele><time>2026-04-05T06:29:47Z</time></trkpt><trkpt lat="43.31193088119226" lon="10.517049451371012"><ele>15.0</ele><time>2026-04-05T06:29:52Z</time></trkpt><trkpt lat="43.31187186226666" lon="10.51710571171596"><ele>15.142857142857142</ele><time>2026-04-05T06:29:57Z</time></trkpt><trkpt lat="43.31182132314063" lon="10.517160316143194"><ele>15.285714285714285</ele><time>2026-04-05T06:30:01Z</time></trkpt><trkpt lat="43.311749652189626" lon="10.517206400864314"><ele>15.428571428571427</ele><time>2026-04-05T06:30:06Z</time></trkpt><trkpt lat="43.31167978367522" lon="10.517237496043876"><ele>15.571428571428571</ele><time>2026-04-05T06:30:11Z</time></trkpt><trkpt lat="43.311608642267316" lon="10.517276847707885"><ele>15.714285714285712</ele><time>2026-04-05T06:30:16Z</time></trkpt><trkpt lat="43.311535573446946" lon="10.517302857114226"><ele>15.857142857142856</ele><time>2026-04-05T06:30:20Z</time></trkpt><trkpt lat="43.31147550687223" lon="10.517363569085155"><ele>16.0</ele><time>2026-04-05T06:30:25Z</time></trkpt><trkpt lat="43.3114822650676" lon="10.517450674461255"><ele>16.0</ele><time>2026-04-05T06:30:30Z</time></trkpt><trkpt lat="43.31151499162625" lon="10.517535755089034"><ele>15.999999999999998</ele><time>2026-04-05T06:30:36Z</time></trkpt><trkpt lat="43.311539170824915" lon="10.517627383194643"><ele>16.0</ele><time>2026-04-05T06:30:42Z</time></trkpt><trkpt lat="43.311561069600714" lon="10.517711456096393"><ele>16.0</ele><time>2026-04-05T06:30:46Z</time></trkpt><trkpt lat="43.3115862531243" lon="10.517806282166232"><ele>15.999999999999998</ele><time>2026-04-05T06:30:51Z</time></trkpt><trkpt lat="43.31161411452936" lon="10.51789594451049"><ele>16.0</ele><time>2026-04-05T06:30:55Z</time></trkpt><trkpt lat="43.311638887504685" lon="10.517984693531403"><ele>16.0</ele><time>2026-04-05T06:31:01Z</time></trkpt><trkpt lat="43.31165173249554" lon="10.518075346399396"><ele>16.333333333333332</ele><time>2026-04-05T06:31:05Z</time></trkpt><trkpt lat="43.31169961622393" lon="10.51816058079274"><ele>16.666666666666664</ele><time>2026-04-05T06:31:09Z</time></trkpt><trkpt lat="43.31174736496846" lon="10.51822795115132"><ele>17.0</ele><time>2026-04-05T06:31:13Z</time></trkpt><trkpt lat="43.3117952876643" lon="10.518318913879215"><ele>17.333333333333332</ele><time>2026-04-05T06:31:18Z</time></trkpt><trkpt lat="43.3118505259792" lon="10.518408303214569"><ele>17.666666666666668</ele><time>2026-04-05T06:31:22Z</time></trkpt><trkpt lat="43.311886535174594" lon="10.518508329551969"><ele>18.0</ele><time>2026-04-05T06:31:27Z</time></trkpt><trkpt lat="43.3119006754009" lon="10.518605279585632"><ele>18.000000000000004</ele><time>2026-04-05T06:31:32Z</time></trkpt><trkpt lat="43.311900863407764" lon="10.51871230073227"><ele>18.0</ele><time>2026-04-05T06:31:37Z</time></trkpt><trkpt lat="43.311897576097884" lon="10.518814014165288"><ele>18.0</ele><time>2026-04-05T06:31:41Z</time></trkpt><trkpt lat="43.311878564988845" lon="10.518914122942762"><ele>18.0</ele><time>2026-04-05T06:31:46Z</time></trkpt><trkpt lat="43.31182778140523" lon="10.518992190592114"><ele>18.0</ele><time>2026-04-05T06:31:51Z</time></trkpt><trkpt lat="43.31178843377674" lon="10.519069271886153"><ele>18.000000000000004</ele><time>2026-04-05T06:31:55Z</time></trkpt><trkpt lat="43.31175345310977" lon="10.519145738367301"><ele>18.0</ele><time>2026-04-05T06:31:59Z</time></trkpt><trkpt lat="43.31172094640494" lon="10.519225015742304"><ele>18.000000000000004</ele><time>2026-04-05T06:32:03Z</time></trkpt><trkpt lat="43.31169153001233" lon="10.519317257422701"><ele>18.0</ele><time>2026-04-05T06:32:08Z</time></trkpt><trkpt lat="43.3116741885344" lon="10.519406446816376"><ele>18.0</ele><time>2026-04-05T06:32:12Z</time></trkpt><trkpt lat="43.311661073288676" lon="10.519493211047324"><ele>18.0</ele><time>2026-04-05T06:32:16Z</time></trkpt><trkpt lat="43.31162308353099" lon="10.519575130926535"><ele>18.0</ele><time>2026-04-05T06:32:21Z</time></trkpt><trkpt lat="43.31156876183977" lon="10.519638366547952"><ele>18.000000000000004</ele><time>2026-04-05T06:32:25Z</time></trkpt><trkpt lat="43.31151058993807" lon="10.519683883305268"><ele>18.0</ele><time>2026-04-05T06:32:29Z</time></trkpt><trkpt lat="43.31143904464455" lon="10.519727970817014"><ele>18.142857142857146</ele><time>2026-04-05T06:32:34Z</time></trkpt><trkpt lat="43.311385077742536" lon="10.51977636803602"><ele>18.285714285714285</ele><time>2026-04-05T06:32:39Z</time></trkpt><trkpt lat="43.311322167397094" lon="10.519799328175367"><ele>18.42857142857143</ele><time>2026-04-05T06:32:45Z</time></trkpt><trkpt lat="43.31130933017214" lon="10.519894762855547"><ele>18.571428571428573</ele><time>2026-04-05T06:32:52Z</time></trkpt><trkpt lat="43.31133644917779" lon="10.519993031027093"><ele>18.714285714285715</ele><time>2026-04-05T06:32:57Z</time></trkpt><trkpt lat="43.311370104972546" lon="10.5200822850497"><ele>18.857142857142858</ele><time>2026-04-05T06:33:02Z</time></trkpt><trkpt lat="43.31140711955677" lon="10.520154386767924"><ele>19.0</ele><time>2026-04-05T06:33:06Z</time></trkpt><trkpt lat="43.31144435402952" lon="10.520225275459612"><ele>19.0</ele><time>2026-04-05T06:33:10Z</time></trkpt><trkpt lat="43.311472435220765" lon="10.52031037284171"><ele>19.0</ele><time>2026-04-05T06:33:14Z</time></trkpt><trkpt lat="43.31144736242992" lon="10.520399841400556"><ele>19.0</ele><time>2026-04-05T06:33:20Z</time></trkpt><trkpt lat="43.311479936305815" lon="10.520489192918678"><ele>19.0</ele><time>2026-04-05T06:33:24Z</time></trkpt><trkpt lat="43.31149491354981" lon="10.520577524885429"><ele>19.0</ele><time>2026-04-05T06:33:29Z</time></trkpt><trkpt lat="43.31153509067896" lon="10.520673438197825"><ele>19.0</ele><time>2026-04-05T06:33:34Z</time></trkpt><trkpt lat="43.31157686843795" lon="10.520759219026859"><ele>19.0</ele><time>2026-04-05T06:33:39Z</time></trkpt><trkpt lat="43.311598361105894" lon="10.520850770272812"><ele>19.0</ele><time>2026-04-05T06:33:44Z</time></trkpt><trkpt lat="43.311622858178985" lon="10.520943577570256"><ele>19.0</ele><time>2026-04-05T06:33:50Z</time></trkpt><trkpt lat="43.31166130068513" lon="10.52103612394872"><ele>19.0</ele><time>2026-04-05T06:33:55Z</time></trkpt><trkpt lat="43.31170263745944" lon="10.521126502207842"><ele>19.0</ele><time>2026-04-05T06:33:59Z</time></trkpt><trkpt lat="43.31173598088203" lon="10.52120818866182"><ele>19.0</ele><time>2026-04-05T06:34:03Z</time></trkpt><trkpt lat="43.31175828553273" lon="10.52130123453023"><ele>19.0</ele><time>2026-04-05T06:34:08Z</time></trkpt><trkpt lat="43.31178201830325" lon="10.521404406547035"><ele>19.0</ele><time>2026-04-05T06:34:13Z</time></trkpt><trkpt lat="43.311799952219715" lon="10.521490887351586"><ele>19.0</ele><time>2026-04-05T06:34:18Z</time></trkpt><trkpt lat="43.31181560621454" lon="10.521600441812552"><ele>19.0</ele><time>2026-04-05T06:34:23Z</time></trkpt><trkpt lat="43.311843464233434" lon="10.52169523624184"><ele>19.0</ele><time>2026-04-05T06:34:28Z</time></trkpt><trkpt lat="43.311884197798534" lon="10.52177723555247"><ele>19.0</ele><time>2026-04-05T06:34:33Z</time></trkpt><trkpt lat="43.31191464754448" lon="10.521853592609832"><ele>19.0</ele><time>2026-04-05T06:34:37Z</time></trkpt><trkpt lat="43.31194787720402" lon="10.521937645136477"><ele>19.0</ele><time>2026-04-05T06:34:41Z</time></trkpt><trkpt lat="43.31198227831664" lon="10.522031792953895"><ele>19.0</ele><time>2026-04-05T06:34:46Z</time></trkpt><trkpt lat="43.31201814661982" lon="10.522128285463799"><ele>19.0</ele><time>2026-04-05T06:34:51Z</time></trkpt><trkpt lat="43.312054110573214" lon="10.52222559113447"><ele>19.0</ele><time>2026-04-05T06:34:56Z</time></trkpt><trkpt lat="43.31208557316948" lon="10.522304385783938"><ele>19.0</ele><time>2026-04-05T06:35:00Z</time></trkpt><trkpt lat="43.31212758882896" lon="10.52239275075931"><ele>19.0</ele><time>2026-04-05T06:35:05Z</time></trkpt><trkpt lat="43.31215253768461" lon="10.522489712925472"><ele>19.0</ele><time>2026-04-05T06:35:10Z</time></trkpt><trkpt lat="43.31215308668199" lon="10.522583301278386"><ele>19.0</ele><time>2026-04-05T06:35:14Z</time></trkpt><trkpt lat="43.31216135887433" lon="10.522669816285267"><ele>19.0</ele><time>2026-04-05T06:35:18Z</time></trkpt><trkpt lat="43.31207858190178" lon="10.522704273627628"><ele>19.0</ele><time>2026-04-05T06:35:21Z</time></trkpt><trkpt lat="43.31201094692015" lon="10.522726714031078"><ele>19.0</ele><time>2026-04-05T06:35:25Z</time></trkpt><trkpt lat="43.311954349162384" lon="10.522771566451256"><ele>19.0</ele><time>2026-04-05T06:35:29Z</time></trkpt><trkpt lat="43.311893075930634" lon="10.522820453548755"><ele>19.0</ele><time>2026-04-05T06:35:33Z</time></trkpt><trkpt lat="43.31183825700006" lon="10.522864246573686"><ele>19.0</ele><time>2026-04-05T06:35:37Z</time></trkpt><trkpt lat="43.31178164061931" lon="10.522930160372182"><ele>19.0</ele><time>2026-04-05T06:35:41Z</time></trkpt><trkpt lat="43.311731500246744" lon="10.52300399617257"><ele>19.0</ele><time>2026-04-05T06:35:45Z</time></trkpt><trkpt lat="43.31167149392568" lon="10.52304006913767"><ele>18.0</ele><time>2026-04-05T06:35:49Z</time></trkpt><trkpt lat="43.31160700021113" lon="10.523061605588383"><ele>18.0</ele><time>2026-04-05T06:35:54Z</time></trkpt><trkpt lat="43.311530648602734" lon="10.523066852192285"><ele>18.0</ele><time>2026-04-05T06:35:59Z</time></trkpt><trkpt lat="43.31146606786456" lon="10.523115334995543"><ele>18.0</ele><time>2026-04-05T06:36:04Z</time></trkpt><trkpt lat="43.311406065642316" lon="10.523160805510663"><ele>15.0</ele><time>2026-04-05T06:36:09Z</time></trkpt><trkpt lat="43.31134416505166" lon="10.523189760564799"><ele>15.0</ele><time>2026-04-05T06:36:13Z</time></trkpt></trkseg></trk></gpx>